
<gpx xmlns="http://www.topografix.com/GPX/1/1" xmlns:gpxx="http://www.garmin.com/xmlschemas/GpxExtensions/v3" xmlns:wptx1="http://www.garmin.com/xmlschemas/WaypointExtension/v1" xmlns:xsi="http://www.w3.org/2001/XMLSchema-instance" version="1.1" creator="Adze - https://getadze.com/" xsi:schemaLocation="http://www.topografix.com/GPX/1/1 http://www.topografix.com/GPX/1/1/gpx.xsd http://www.garmin.com/xmlschemas/GpxExtensions/v3 http://www8.garmin.com/xmlschemas/GpxExtensionsv3.xsd http://www.garmin.com/xmlschemas/WaypointExtension/v1 http://www8.garmin.com/xmlschemas/WaypointExtensionv1.xsd">
    <metadata>
        <name>Untitled Document</name>
        <link href="http://www.garmin.com"></link>
        <time>2018-03-05T08:21:40.096Z</time>
    </metadata>
    <wpt lon="101.406492" lat="14.216786">
        <ele>39.000000</ele>
        <name>Khao Yai Grand View</name>
        <sym>Building</sym>
        <type>user</type>
        <extensions>
            <gpxx:WaypointExtension>
                <gpxx:DisplayMode>SymbolAndName</gpxx:DisplayMode>
            </gpxx:WaypointExtension>
            <wptx1:WaypointExtension>
                <wptx1:DisplayMode>SymbolAndName</wptx1:DisplayMode>
            </wptx1:WaypointExtension>
        </extensions>
    </wpt>
    <trk>
        <name>March 2006 - Sunday</name>
        <extensions>
            <gpxx:TrackExtension>
                <gpxx:DisplayColor>DarkGray</gpxx:DisplayColor>
            </gpxx:TrackExtension>
        </extensions>
        <trkseg>
            <trkpt lon="101.406341" lat="14.216931">
                <ele>59.258423</ele>
                <time>2006-03-26T02:53:36Z</time>
            </trkpt>
            <trkpt lon="101.406341" lat="14.216931">
                <ele>59.258423</ele>
                <time>2006-03-26T02:53:36Z</time>
            </trkpt>
            <trkpt lon="101.406384" lat="14.216909">
                <ele>41.473999</ele>
                <time>2006-03-26T02:58:54Z</time>
            </trkpt>
            <trkpt lon="101.406384" lat="14.216909">
                <ele>41.473999</ele>
                <time>2006-03-26T02:58:54Z</time>
            </trkpt>
            <trkpt lon="101.406362" lat="14.216909">
                <ele>46.280640</ele>
                <time>2006-03-26T03:04:57Z</time>
            </trkpt>
            <trkpt lon="101.406362" lat="14.216909">
                <ele>46.280640</ele>
                <time>2006-03-26T03:04:57Z</time>
            </trkpt>
            <trkpt lon="101.406276" lat="14.216909">
                <ele>47.722534</ele>
                <time>2006-03-26T03:05:59Z</time>
            </trkpt>
            <trkpt lon="101.406276" lat="14.216909">
                <ele>47.722534</ele>
                <time>2006-03-26T03:05:59Z</time>
            </trkpt>
            <trkpt lon="101.406319" lat="14.216866">
                <ele>48.683960</ele>
                <time>2006-03-26T03:06:04Z</time>
            </trkpt>
            <trkpt lon="101.406319" lat="14.216866">
                <ele>48.683960</ele>
                <time>2006-03-26T03:06:04Z</time>
            </trkpt>
            <trkpt lon="101.406555" lat="14.216824">
                <ele>48.683960</ele>
                <time>2006-03-26T03:06:18Z</time>
            </trkpt>
            <trkpt lon="101.406555" lat="14.216824">
                <ele>48.683960</ele>
                <time>2006-03-26T03:06:18Z</time>
            </trkpt>
            <trkpt lon="101.407113" lat="14.216845">
                <ele>48.683960</ele>
                <time>2006-03-26T03:06:38Z</time>
            </trkpt>
            <trkpt lon="101.407113" lat="14.216845">
                <ele>48.683960</ele>
                <time>2006-03-26T03:06:38Z</time>
            </trkpt>
            <trkpt lon="101.407371" lat="14.217038">
                <ele>50.606567</ele>
                <time>2006-03-26T03:06:48Z</time>
            </trkpt>
            <trkpt lon="101.407371" lat="14.217038">
                <ele>50.606567</ele>
                <time>2006-03-26T03:06:48Z</time>
            </trkpt>
            <trkpt lon="101.407199" lat="14.217231">
                <ele>50.606567</ele>
                <time>2006-03-26T03:06:56Z</time>
            </trkpt>
            <trkpt lon="101.407199" lat="14.217231">
                <ele>50.606567</ele>
                <time>2006-03-26T03:06:56Z</time>
            </trkpt>
            <trkpt lon="101.406362" lat="14.217532">
                <ele>48.203369</ele>
                <time>2006-03-26T03:07:17Z</time>
            </trkpt>
            <trkpt lon="101.406362" lat="14.217532">
                <ele>48.203369</ele>
                <time>2006-03-26T03:07:17Z</time>
            </trkpt>
            <trkpt lon="101.406083" lat="14.217639">
                <ele>45.799927</ele>
                <time>2006-03-26T03:07:24Z</time>
            </trkpt>
            <trkpt lon="101.406083" lat="14.217639">
                <ele>45.799927</ele>
                <time>2006-03-26T03:07:24Z</time>
            </trkpt>
            <trkpt lon="101.405954" lat="14.217746">
                <ele>46.280640</ele>
                <time>2006-03-26T03:07:28Z</time>
            </trkpt>
            <trkpt lon="101.405954" lat="14.217746">
                <ele>46.280640</ele>
                <time>2006-03-26T03:07:28Z</time>
            </trkpt>
            <trkpt lon="101.405911" lat="14.218283">
                <ele>45.319214</ele>
                <time>2006-03-26T03:07:42Z</time>
            </trkpt>
            <trkpt lon="101.405911" lat="14.218283">
                <ele>45.319214</ele>
                <time>2006-03-26T03:07:42Z</time>
            </trkpt>
            <trkpt lon="101.405611" lat="14.218175">
                <ele>42.435425</ele>
                <time>2006-03-26T03:07:51Z</time>
            </trkpt>
            <trkpt lon="101.405611" lat="14.218175">
                <ele>42.435425</ele>
                <time>2006-03-26T03:07:51Z</time>
            </trkpt>
            <trkpt lon="101.405375" lat="14.217231">
                <ele>44.838623</ele>
                <time>2006-03-26T03:08:11Z</time>
            </trkpt>
            <trkpt lon="101.405375" lat="14.217231">
                <ele>44.838623</ele>
                <time>2006-03-26T03:08:11Z</time>
            </trkpt>
            <trkpt lon="101.404860" lat="14.216287">
                <ele>46.280640</ele>
                <time>2006-03-26T03:08:31Z</time>
            </trkpt>
            <trkpt lon="101.404860" lat="14.216287">
                <ele>46.280640</ele>
                <time>2006-03-26T03:08:31Z</time>
            </trkpt>
            <trkpt lon="101.404002" lat="14.215343">
                <ele>45.799927</ele>
                <time>2006-03-26T03:08:53Z</time>
            </trkpt>
            <trkpt lon="101.404002" lat="14.215343">
                <ele>45.799927</ele>
                <time>2006-03-26T03:08:53Z</time>
            </trkpt>
            <trkpt lon="101.402779" lat="14.214141">
                <ele>43.877319</ele>
                <time>2006-03-26T03:09:16Z</time>
            </trkpt>
            <trkpt lon="101.402779" lat="14.214141">
                <ele>43.877319</ele>
                <time>2006-03-26T03:09:16Z</time>
            </trkpt>
            <trkpt lon="101.401920" lat="14.213305">
                <ele>40.032104</ele>
                <time>2006-03-26T03:09:34Z</time>
            </trkpt>
            <trkpt lon="101.401920" lat="14.213305">
                <ele>40.032104</ele>
                <time>2006-03-26T03:09:34Z</time>
            </trkpt>
            <trkpt lon="101.400890" lat="14.212275">
                <ele>37.628662</ele>
                <time>2006-03-26T03:09:57Z</time>
            </trkpt>
            <trkpt lon="101.400890" lat="14.212275">
                <ele>37.628662</ele>
                <time>2006-03-26T03:09:57Z</time>
            </trkpt>
            <trkpt lon="101.399903" lat="14.211309">
                <ele>38.590088</ele>
                <time>2006-03-26T03:10:23Z</time>
            </trkpt>
            <trkpt lon="101.399903" lat="14.211309">
                <ele>38.590088</ele>
                <time>2006-03-26T03:10:23Z</time>
            </trkpt>
            <trkpt lon="101.398702" lat="14.210107">
                <ele>40.512817</ele>
                <time>2006-03-26T03:10:50Z</time>
            </trkpt>
            <trkpt lon="101.398702" lat="14.210107">
                <ele>40.512817</ele>
                <time>2006-03-26T03:10:50Z</time>
            </trkpt>
            <trkpt lon="101.398294" lat="14.209700">
                <ele>39.070679</ele>
                <time>2006-03-26T03:10:59Z</time>
            </trkpt>
            <trkpt lon="101.398294" lat="14.209700">
                <ele>39.070679</ele>
                <time>2006-03-26T03:10:59Z</time>
            </trkpt>
            <trkpt lon="101.397479" lat="14.208906">
                <ele>40.512817</ele>
                <time>2006-03-26T03:11:23Z</time>
            </trkpt>
            <trkpt lon="101.397479" lat="14.208906">
                <ele>40.512817</ele>
                <time>2006-03-26T03:11:23Z</time>
            </trkpt>
            <trkpt lon="101.396642" lat="14.208069">
                <ele>39.070679</ele>
                <time>2006-03-26T03:11:45Z</time>
            </trkpt>
            <trkpt lon="101.396642" lat="14.208069">
                <ele>39.070679</ele>
                <time>2006-03-26T03:11:45Z</time>
            </trkpt>
            <trkpt lon="101.395676" lat="14.207082">
                <ele>35.706055</ele>
                <time>2006-03-26T03:12:06Z</time>
            </trkpt>
            <trkpt lon="101.395676" lat="14.207082">
                <ele>35.706055</ele>
                <time>2006-03-26T03:12:06Z</time>
            </trkpt>
            <trkpt lon="101.395504" lat="14.206910">
                <ele>34.264160</ele>
                <time>2006-03-26T03:12:09Z</time>
            </trkpt>
            <trkpt lon="101.395504" lat="14.206910">
                <ele>34.264160</ele>
                <time>2006-03-26T03:12:09Z</time>
            </trkpt>
            <trkpt lon="101.394689" lat="14.206138">
                <ele>30.899536</ele>
                <time>2006-03-26T03:12:26Z</time>
            </trkpt>
            <trkpt lon="101.394689" lat="14.206138">
                <ele>30.899536</ele>
                <time>2006-03-26T03:12:26Z</time>
            </trkpt>
            <trkpt lon="101.394496" lat="14.206116">
                <ele>30.418823</ele>
                <time>2006-03-26T03:12:30Z</time>
            </trkpt>
            <trkpt lon="101.394496" lat="14.206116">
                <ele>30.418823</ele>
                <time>2006-03-26T03:12:30Z</time>
            </trkpt>
            <trkpt lon="101.393402" lat="14.206460">
                <ele>29.457520</ele>
                <time>2006-03-26T03:12:50Z</time>
            </trkpt>
            <trkpt lon="101.393402" lat="14.206460">
                <ele>29.457520</ele>
                <time>2006-03-26T03:12:50Z</time>
            </trkpt>
            <trkpt lon="101.392114" lat="14.206781">
                <ele>28.496216</ele>
                <time>2006-03-26T03:13:12Z</time>
            </trkpt>
            <trkpt lon="101.392114" lat="14.206781">
                <ele>28.496216</ele>
                <time>2006-03-26T03:13:12Z</time>
            </trkpt>
            <trkpt lon="101.390934" lat="14.207039">
                <ele>28.015503</ele>
                <time>2006-03-26T03:13:33Z</time>
            </trkpt>
            <trkpt lon="101.390934" lat="14.207039">
                <ele>28.015503</ele>
                <time>2006-03-26T03:13:33Z</time>
            </trkpt>
            <trkpt lon="101.389582" lat="14.207168">
                <ele>28.976929</ele>
                <time>2006-03-26T03:13:57Z</time>
            </trkpt>
            <trkpt lon="101.389582" lat="14.207168">
                <ele>28.976929</ele>
                <time>2006-03-26T03:13:57Z</time>
            </trkpt>
            <trkpt lon="101.388466" lat="14.207382">
                <ele>29.938110</ele>
                <time>2006-03-26T03:14:17Z</time>
            </trkpt>
            <trkpt lon="101.388466" lat="14.207382">
                <ele>29.938110</ele>
                <time>2006-03-26T03:14:17Z</time>
            </trkpt>
            <trkpt lon="101.388252" lat="14.207447">
                <ele>29.938110</ele>
                <time>2006-03-26T03:14:22Z</time>
            </trkpt>
            <trkpt lon="101.388252" lat="14.207447">
                <ele>29.938110</ele>
                <time>2006-03-26T03:14:22Z</time>
            </trkpt>
            <trkpt lon="101.387351" lat="14.207983">
                <ele>30.418823</ele>
                <time>2006-03-26T03:14:47Z</time>
            </trkpt>
            <trkpt lon="101.387351" lat="14.207983">
                <ele>30.418823</ele>
                <time>2006-03-26T03:14:47Z</time>
            </trkpt>
            <trkpt lon="101.387179" lat="14.207940">
                <ele>30.899536</ele>
                <time>2006-03-26T03:14:51Z</time>
            </trkpt>
            <trkpt lon="101.387179" lat="14.207940">
                <ele>30.899536</ele>
                <time>2006-03-26T03:14:51Z</time>
            </trkpt>
            <trkpt lon="101.386321" lat="14.207511">
                <ele>28.496216</ele>
                <time>2006-03-26T03:15:09Z</time>
            </trkpt>
            <trkpt lon="101.386321" lat="14.207511">
                <ele>28.496216</ele>
                <time>2006-03-26T03:15:09Z</time>
            </trkpt>
            <trkpt lon="101.385655" lat="14.207318">
                <ele>27.054321</ele>
                <time>2006-03-26T03:15:18Z</time>
            </trkpt>
            <trkpt lon="101.385655" lat="14.207318">
                <ele>27.054321</ele>
                <time>2006-03-26T03:15:18Z</time>
            </trkpt>
            <trkpt lon="101.384132" lat="14.206438">
                <ele>25.612305</ele>
                <time>2006-03-26T03:15:42Z</time>
            </trkpt>
            <trkpt lon="101.384132" lat="14.206438">
                <ele>25.612305</ele>
                <time>2006-03-26T03:15:42Z</time>
            </trkpt>
            <trkpt lon="101.382501" lat="14.205430">
                <ele>25.612305</ele>
                <time>2006-03-26T03:16:10Z</time>
            </trkpt>
            <trkpt lon="101.382501" lat="14.205430">
                <ele>25.612305</ele>
                <time>2006-03-26T03:16:10Z</time>
            </trkpt>
            <trkpt lon="101.381321" lat="14.204679">
                <ele>25.612305</ele>
                <time>2006-03-26T03:16:33Z</time>
            </trkpt>
            <trkpt lon="101.381321" lat="14.204679">
                <ele>25.612305</ele>
                <time>2006-03-26T03:16:33Z</time>
            </trkpt>
            <trkpt lon="101.380205" lat="14.203970">
                <ele>23.689575</ele>
                <time>2006-03-26T03:16:54Z</time>
            </trkpt>
            <trkpt lon="101.380205" lat="14.203970">
                <ele>23.689575</ele>
                <time>2006-03-26T03:16:54Z</time>
            </trkpt>
            <trkpt lon="101.379004" lat="14.203198">
                <ele>22.728271</ele>
                <time>2006-03-26T03:17:18Z</time>
            </trkpt>
            <trkpt lon="101.379004" lat="14.203198">
                <ele>22.728271</ele>
                <time>2006-03-26T03:17:18Z</time>
            </trkpt>
            <trkpt lon="101.377780" lat="14.202425">
                <ele>21.766968</ele>
                <time>2006-03-26T03:17:42Z</time>
            </trkpt>
            <trkpt lon="101.377780" lat="14.202425">
                <ele>21.766968</ele>
                <time>2006-03-26T03:17:42Z</time>
            </trkpt>
            <trkpt lon="101.377394" lat="14.202189">
                <ele>23.208984</ele>
                <time>2006-03-26T03:17:56Z</time>
            </trkpt>
            <trkpt lon="101.377394" lat="14.202189">
                <ele>23.208984</ele>
                <time>2006-03-26T03:17:56Z</time>
            </trkpt>
            <trkpt lon="101.377137" lat="14.202018">
                <ele>23.208984</ele>
                <time>2006-03-26T03:18:08Z</time>
            </trkpt>
            <trkpt lon="101.377137" lat="14.202018">
                <ele>23.208984</ele>
                <time>2006-03-26T03:18:08Z</time>
            </trkpt>
            <trkpt lon="101.376235" lat="14.201438">
                <ele>22.728271</ele>
                <time>2006-03-26T03:18:29Z</time>
            </trkpt>
            <trkpt lon="101.376235" lat="14.201438">
                <ele>22.728271</ele>
                <time>2006-03-26T03:18:29Z</time>
            </trkpt>
            <trkpt lon="101.375291" lat="14.200838">
                <ele>23.689575</ele>
                <time>2006-03-26T03:18:49Z</time>
            </trkpt>
            <trkpt lon="101.375291" lat="14.200838">
                <ele>23.689575</ele>
                <time>2006-03-26T03:18:49Z</time>
            </trkpt>
            <trkpt lon="101.374176" lat="14.200065">
                <ele>21.286377</ele>
                <time>2006-03-26T03:19:12Z</time>
            </trkpt>
            <trkpt lon="101.374176" lat="14.200065">
                <ele>21.286377</ele>
                <time>2006-03-26T03:19:12Z</time>
            </trkpt>
            <trkpt lon="101.373317" lat="14.199507">
                <ele>22.247559</ele>
                <time>2006-03-26T03:19:30Z</time>
            </trkpt>
            <trkpt lon="101.373317" lat="14.199507">
                <ele>22.247559</ele>
                <time>2006-03-26T03:19:30Z</time>
            </trkpt>
            <trkpt lon="101.373081" lat="14.199636">
                <ele>20.324951</ele>
                <time>2006-03-26T03:19:37Z</time>
            </trkpt>
            <trkpt lon="101.373081" lat="14.199636">
                <ele>20.324951</ele>
                <time>2006-03-26T03:19:37Z</time>
            </trkpt>
            <trkpt lon="101.373038" lat="14.199893">
                <ele>19.844360</ele>
                <time>2006-03-26T03:19:42Z</time>
            </trkpt>
            <trkpt lon="101.373038" lat="14.199893">
                <ele>19.844360</ele>
                <time>2006-03-26T03:19:42Z</time>
            </trkpt>
            <trkpt lon="101.373060" lat="14.200194">
                <ele>19.844360</ele>
                <time>2006-03-26T03:19:48Z</time>
            </trkpt>
            <trkpt lon="101.373060" lat="14.200194">
                <ele>19.844360</ele>
                <time>2006-03-26T03:19:48Z</time>
            </trkpt>
            <trkpt lon="101.372867" lat="14.200387">
                <ele>19.844360</ele>
                <time>2006-03-26T03:19:57Z</time>
            </trkpt>
            <trkpt lon="101.372867" lat="14.200387">
                <ele>19.844360</ele>
                <time>2006-03-26T03:19:57Z</time>
            </trkpt>
            <trkpt lon="101.372395" lat="14.200344">
                <ele>18.883057</ele>
                <time>2006-03-26T03:20:10Z</time>
            </trkpt>
            <trkpt lon="101.372395" lat="14.200344">
                <ele>18.883057</ele>
                <time>2006-03-26T03:20:10Z</time>
            </trkpt>
            <trkpt lon="101.371794" lat="14.200301">
                <ele>16.960449</ele>
                <time>2006-03-26T03:20:26Z</time>
            </trkpt>
            <trkpt lon="101.371794" lat="14.200301">
                <ele>16.960449</ele>
                <time>2006-03-26T03:20:26Z</time>
            </trkpt>
            <trkpt lon="101.371644" lat="14.200344">
                <ele>16.960449</ele>
                <time>2006-03-26T03:20:31Z</time>
            </trkpt>
            <trkpt lon="101.371644" lat="14.200344">
                <ele>16.960449</ele>
                <time>2006-03-26T03:20:31Z</time>
            </trkpt>
            <trkpt lon="101.371622" lat="14.200516">
                <ele>16.960449</ele>
                <time>2006-03-26T03:20:37Z</time>
            </trkpt>
            <trkpt lon="101.371622" lat="14.200516">
                <ele>16.960449</ele>
                <time>2006-03-26T03:20:37Z</time>
            </trkpt>
            <trkpt lon="101.371493" lat="14.200730">
                <ele>18.402344</ele>
                <time>2006-03-26T03:20:48Z</time>
            </trkpt>
            <trkpt lon="101.371493" lat="14.200730">
                <ele>18.402344</ele>
                <time>2006-03-26T03:20:48Z</time>
            </trkpt>
            <trkpt lon="101.371322" lat="14.200923">
                <ele>19.844360</ele>
                <time>2006-03-26T03:20:58Z</time>
            </trkpt>
            <trkpt lon="101.371322" lat="14.200923">
                <ele>19.844360</ele>
                <time>2006-03-26T03:20:58Z</time>
            </trkpt>
            <trkpt lon="101.371193" lat="14.201009">
                <ele>19.844360</ele>
                <time>2006-03-26T03:21:03Z</time>
            </trkpt>
            <trkpt lon="101.371193" lat="14.201009">
                <ele>19.844360</ele>
                <time>2006-03-26T03:21:03Z</time>
            </trkpt>
            <trkpt lon="101.371150" lat="14.200945">
                <ele>19.844360</ele>
                <time>2006-03-26T03:21:07Z</time>
            </trkpt>
            <trkpt lon="101.371150" lat="14.200945">
                <ele>19.844360</ele>
                <time>2006-03-26T03:21:07Z</time>
            </trkpt>
            <trkpt lon="101.371000" lat="14.200323">
                <ele>19.363770</ele>
                <time>2006-03-26T03:21:26Z</time>
            </trkpt>
            <trkpt lon="101.371000" lat="14.200323">
                <ele>19.363770</ele>
                <time>2006-03-26T03:21:26Z</time>
            </trkpt>
            <trkpt lon="101.370850" lat="14.199679">
                <ele>19.363770</ele>
                <time>2006-03-26T03:21:43Z</time>
            </trkpt>
            <trkpt lon="101.370850" lat="14.199679">
                <ele>19.363770</ele>
                <time>2006-03-26T03:21:43Z</time>
            </trkpt>
            <trkpt lon="101.370614" lat="14.198799">
                <ele>16.960449</ele>
                <time>2006-03-26T03:22:06Z</time>
            </trkpt>
            <trkpt lon="101.370614" lat="14.198799">
                <ele>16.960449</ele>
                <time>2006-03-26T03:22:06Z</time>
            </trkpt>
            <trkpt lon="101.370399" lat="14.198306">
                <ele>16.960449</ele>
                <time>2006-03-26T03:22:24Z</time>
            </trkpt>
            <trkpt lon="101.370399" lat="14.198306">
                <ele>16.960449</ele>
                <time>2006-03-26T03:22:24Z</time>
            </trkpt>
            <trkpt lon="101.370399" lat="14.198284">
                <ele>13.595825</ele>
                <time>2006-03-26T03:22:39Z</time>
            </trkpt>
            <trkpt lon="101.370399" lat="14.198284">
                <ele>13.595825</ele>
                <time>2006-03-26T03:22:39Z</time>
            </trkpt>
            <trkpt lon="101.370442" lat="14.198456">
                <ele>15.999023</ele>
                <time>2006-03-26T03:23:22Z</time>
            </trkpt>
            <trkpt lon="101.370442" lat="14.198456">
                <ele>15.999023</ele>
                <time>2006-03-26T03:23:22Z</time>
            </trkpt>
            <trkpt lon="101.370463" lat="14.198499">
                <ele>18.883057</ele>
                <time>2006-03-26T03:23:35Z</time>
            </trkpt>
            <trkpt lon="101.370463" lat="14.198499">
                <ele>18.883057</ele>
                <time>2006-03-26T03:23:35Z</time>
            </trkpt>
            <trkpt lon="101.370485" lat="14.198520">
                <ele>24.170288</ele>
                <time>2006-03-26T03:23:55Z</time>
            </trkpt>
            <trkpt lon="101.370485" lat="14.198520">
                <ele>24.170288</ele>
                <time>2006-03-26T03:23:55Z</time>
            </trkpt>
            <trkpt lon="101.370656" lat="14.198456">
                <ele>24.170288</ele>
                <time>2006-03-26T03:24:10Z</time>
            </trkpt>
            <trkpt lon="101.370656" lat="14.198456">
                <ele>24.170288</ele>
                <time>2006-03-26T03:24:10Z</time>
            </trkpt>
            <trkpt lon="101.370828" lat="14.198413">
                <ele>23.689575</ele>
                <time>2006-03-26T03:24:24Z</time>
            </trkpt>
            <trkpt lon="101.370828" lat="14.198413">
                <ele>23.689575</ele>
                <time>2006-03-26T03:24:24Z</time>
            </trkpt>
            <trkpt lon="101.370850" lat="14.198413">
                <ele>21.766968</ele>
                <time>2006-03-26T03:24:33Z</time>
            </trkpt>
            <trkpt lon="101.370850" lat="14.198413">
                <ele>21.766968</ele>
                <time>2006-03-26T03:24:33Z</time>
            </trkpt>
            <trkpt lon="101.370871" lat="14.198370">
                <ele>21.286377</ele>
                <time>2006-03-26T03:24:36Z</time>
            </trkpt>
            <trkpt lon="101.370871" lat="14.198370">
                <ele>21.286377</ele>
                <time>2006-03-26T03:24:36Z</time>
            </trkpt>
            <trkpt lon="101.371000" lat="14.198263">
                <ele>19.844360</ele>
                <time>2006-03-26T03:24:46Z</time>
            </trkpt>
            <trkpt lon="101.371000" lat="14.198263">
                <ele>19.844360</ele>
                <time>2006-03-26T03:24:46Z</time>
            </trkpt>
            <trkpt lon="101.370978" lat="14.198177">
                <ele>19.844360</ele>
                <time>2006-03-26T03:24:50Z</time>
            </trkpt>
            <trkpt lon="101.370978" lat="14.198177">
                <ele>19.844360</ele>
                <time>2006-03-26T03:24:50Z</time>
            </trkpt>
            <trkpt lon="101.370850" lat="14.197705">
                <ele>18.883057</ele>
                <time>2006-03-26T03:25:06Z</time>
            </trkpt>
            <trkpt lon="101.370850" lat="14.197705">
                <ele>18.883057</ele>
                <time>2006-03-26T03:25:06Z</time>
            </trkpt>
            <trkpt lon="101.370828" lat="14.197640">
                <ele>19.363770</ele>
                <time>2006-03-26T03:25:10Z</time>
            </trkpt>
            <trkpt lon="101.370828" lat="14.197640">
                <ele>19.363770</ele>
                <time>2006-03-26T03:25:10Z</time>
            </trkpt>
            <trkpt lon="101.370828" lat="14.197598">
                <ele>19.844360</ele>
                <time>2006-03-26T03:25:21Z</time>
            </trkpt>
            <trkpt lon="101.370828" lat="14.197598">
                <ele>19.844360</ele>
                <time>2006-03-26T03:25:21Z</time>
            </trkpt>
            <trkpt lon="101.370807" lat="14.197404">
                <ele>19.844360</ele>
                <time>2006-03-26T03:25:34Z</time>
            </trkpt>
            <trkpt lon="101.370807" lat="14.197404">
                <ele>19.844360</ele>
                <time>2006-03-26T03:25:34Z</time>
            </trkpt>
            <trkpt lon="101.370463" lat="14.197276">
                <ele>21.286377</ele>
                <time>2006-03-26T03:25:49Z</time>
            </trkpt>
            <trkpt lon="101.370463" lat="14.197276">
                <ele>21.286377</ele>
                <time>2006-03-26T03:25:49Z</time>
            </trkpt>
            <trkpt lon="101.369648" lat="14.197083">
                <ele>18.883057</ele>
                <time>2006-03-26T03:26:07Z</time>
            </trkpt>
            <trkpt lon="101.369648" lat="14.197083">
                <ele>18.883057</ele>
                <time>2006-03-26T03:26:07Z</time>
            </trkpt>
            <trkpt lon="101.368575" lat="14.196610">
                <ele>23.208984</ele>
                <time>2006-03-26T03:26:28Z</time>
            </trkpt>
            <trkpt lon="101.368575" lat="14.196610">
                <ele>23.208984</ele>
                <time>2006-03-26T03:26:28Z</time>
            </trkpt>
            <trkpt lon="101.367416" lat="14.196095">
                <ele>23.689575</ele>
                <time>2006-03-26T03:26:51Z</time>
            </trkpt>
            <trkpt lon="101.367416" lat="14.196095">
                <ele>23.689575</ele>
                <time>2006-03-26T03:26:51Z</time>
            </trkpt>
            <trkpt lon="101.366386" lat="14.195752">
                <ele>23.689575</ele>
                <time>2006-03-26T03:27:12Z</time>
            </trkpt>
            <trkpt lon="101.366386" lat="14.195752">
                <ele>23.689575</ele>
                <time>2006-03-26T03:27:12Z</time>
            </trkpt>
            <trkpt lon="101.366279" lat="14.195538">
                <ele>22.728271</ele>
                <time>2006-03-26T03:27:19Z</time>
            </trkpt>
            <trkpt lon="101.366279" lat="14.195538">
                <ele>22.728271</ele>
                <time>2006-03-26T03:27:19Z</time>
            </trkpt>
            <trkpt lon="101.366258" lat="14.195430">
                <ele>22.728271</ele>
                <time>2006-03-26T03:27:22Z</time>
            </trkpt>
            <trkpt lon="101.366258" lat="14.195430">
                <ele>22.728271</ele>
                <time>2006-03-26T03:27:22Z</time>
            </trkpt>
            <trkpt lon="101.366129" lat="14.194636">
                <ele>23.208984</ele>
                <time>2006-03-26T03:27:39Z</time>
            </trkpt>
            <trkpt lon="101.366129" lat="14.194636">
                <ele>23.208984</ele>
                <time>2006-03-26T03:27:39Z</time>
            </trkpt>
            <trkpt lon="101.365914" lat="14.194508">
                <ele>21.766968</ele>
                <time>2006-03-26T03:27:45Z</time>
            </trkpt>
            <trkpt lon="101.365914" lat="14.194508">
                <ele>21.766968</ele>
                <time>2006-03-26T03:27:45Z</time>
            </trkpt>
            <trkpt lon="101.364992" lat="14.194314">
                <ele>21.286377</ele>
                <time>2006-03-26T03:28:05Z</time>
            </trkpt>
            <trkpt lon="101.364992" lat="14.194314">
                <ele>21.286377</ele>
                <time>2006-03-26T03:28:05Z</time>
            </trkpt>
            <trkpt lon="101.364734" lat="14.194143">
                <ele>21.766968</ele>
                <time>2006-03-26T03:28:11Z</time>
            </trkpt>
            <trkpt lon="101.364734" lat="14.194143">
                <ele>21.766968</ele>
                <time>2006-03-26T03:28:11Z</time>
            </trkpt>
            <trkpt lon="101.364670" lat="14.194057">
                <ele>21.286377</ele>
                <time>2006-03-26T03:28:13Z</time>
            </trkpt>
            <trkpt lon="101.364670" lat="14.194057">
                <ele>21.286377</ele>
                <time>2006-03-26T03:28:13Z</time>
            </trkpt>
            <trkpt lon="101.364605" lat="14.193928">
                <ele>21.766968</ele>
                <time>2006-03-26T03:28:16Z</time>
            </trkpt>
            <trkpt lon="101.364605" lat="14.193928">
                <ele>21.766968</ele>
                <time>2006-03-26T03:28:16Z</time>
            </trkpt>
            <trkpt lon="101.364348" lat="14.193778">
                <ele>20.805664</ele>
                <time>2006-03-26T03:28:22Z</time>
            </trkpt>
            <trkpt lon="101.364348" lat="14.193778">
                <ele>20.805664</ele>
                <time>2006-03-26T03:28:22Z</time>
            </trkpt>
            <trkpt lon="101.364133" lat="14.193778">
                <ele>20.324951</ele>
                <time>2006-03-26T03:28:26Z</time>
            </trkpt>
            <trkpt lon="101.364133" lat="14.193778">
                <ele>20.324951</ele>
                <time>2006-03-26T03:28:26Z</time>
            </trkpt>
            <trkpt lon="101.364005" lat="14.193563">
                <ele>20.324951</ele>
                <time>2006-03-26T03:28:34Z</time>
            </trkpt>
            <trkpt lon="101.364005" lat="14.193563">
                <ele>20.324951</ele>
                <time>2006-03-26T03:28:34Z</time>
            </trkpt>
            <trkpt lon="101.364176" lat="14.193542">
                <ele>19.844360</ele>
                <time>2006-03-26T03:28:38Z</time>
            </trkpt>
            <trkpt lon="101.364176" lat="14.193542">
                <ele>19.844360</ele>
                <time>2006-03-26T03:28:38Z</time>
            </trkpt>
            <trkpt lon="101.364713" lat="14.193563">
                <ele>19.363770</ele>
                <time>2006-03-26T03:28:48Z</time>
            </trkpt>
            <trkpt lon="101.364713" lat="14.193563">
                <ele>19.363770</ele>
                <time>2006-03-26T03:28:48Z</time>
            </trkpt>
            <trkpt lon="101.364927" lat="14.193842">
                <ele>18.883057</ele>
                <time>2006-03-26T03:28:55Z</time>
            </trkpt>
            <trkpt lon="101.364927" lat="14.193842">
                <ele>18.883057</ele>
                <time>2006-03-26T03:28:55Z</time>
            </trkpt>
            <trkpt lon="101.365292" lat="14.194036">
                <ele>18.883057</ele>
                <time>2006-03-26T03:29:03Z</time>
            </trkpt>
            <trkpt lon="101.365292" lat="14.194036">
                <ele>18.883057</ele>
                <time>2006-03-26T03:29:03Z</time>
            </trkpt>
            <trkpt lon="101.366193" lat="14.194186">
                <ele>18.402344</ele>
                <time>2006-03-26T03:29:22Z</time>
            </trkpt>
            <trkpt lon="101.366193" lat="14.194186">
                <ele>18.402344</ele>
                <time>2006-03-26T03:29:22Z</time>
            </trkpt>
            <trkpt lon="101.367137" lat="14.194486">
                <ele>15.999023</ele>
                <time>2006-03-26T03:29:46Z</time>
            </trkpt>
            <trkpt lon="101.367137" lat="14.194486">
                <ele>15.999023</ele>
                <time>2006-03-26T03:29:46Z</time>
            </trkpt>
            <trkpt lon="101.367567" lat="14.194400">
                <ele>16.960449</ele>
                <time>2006-03-26T03:30:01Z</time>
            </trkpt>
            <trkpt lon="101.367567" lat="14.194400">
                <ele>16.960449</ele>
                <time>2006-03-26T03:30:01Z</time>
            </trkpt>
            <trkpt lon="101.367524" lat="14.194357">
                <ele>16.960449</ele>
                <time>2006-03-26T03:30:20Z</time>
            </trkpt>
            <trkpt lon="101.367524" lat="14.194357">
                <ele>16.960449</ele>
                <time>2006-03-26T03:30:20Z</time>
            </trkpt>
            <trkpt lon="101.367395" lat="14.194357">
                <ele>15.518433</ele>
                <time>2006-03-26T03:30:41Z</time>
            </trkpt>
            <trkpt lon="101.367395" lat="14.194357">
                <ele>15.518433</ele>
                <time>2006-03-26T03:30:41Z</time>
            </trkpt>
            <trkpt lon="101.367352" lat="14.194379">
                <ele>15.037720</ele>
                <time>2006-03-26T03:30:46Z</time>
            </trkpt>
            <trkpt lon="101.367352" lat="14.194379">
                <ele>15.037720</ele>
                <time>2006-03-26T03:30:46Z</time>
            </trkpt>
            <trkpt lon="101.366966" lat="14.194443">
                <ele>14.557007</ele>
                <time>2006-03-26T03:31:03Z</time>
            </trkpt>
            <trkpt lon="101.366966" lat="14.194443">
                <ele>14.557007</ele>
                <time>2006-03-26T03:31:03Z</time>
            </trkpt>
            <trkpt lon="101.366923" lat="14.194465">
                <ele>15.037720</ele>
                <time>2006-03-26T03:31:04Z</time>
            </trkpt>
            <trkpt lon="101.366923" lat="14.194465">
                <ele>15.037720</ele>
                <time>2006-03-26T03:31:04Z</time>
            </trkpt>
            <trkpt lon="101.366622" lat="14.194293">
                <ele>15.037720</ele>
                <time>2006-03-26T03:31:17Z</time>
            </trkpt>
            <trkpt lon="101.366622" lat="14.194293">
                <ele>15.037720</ele>
                <time>2006-03-26T03:31:17Z</time>
            </trkpt>
            <trkpt lon="101.366065" lat="14.194143">
                <ele>15.037720</ele>
                <time>2006-03-26T03:31:38Z</time>
            </trkpt>
            <trkpt lon="101.366065" lat="14.194143">
                <ele>15.037720</ele>
                <time>2006-03-26T03:31:38Z</time>
            </trkpt>
            <trkpt lon="101.365850" lat="14.194078">
                <ele>15.999023</ele>
                <time>2006-03-26T03:31:53Z</time>
            </trkpt>
            <trkpt lon="101.365850" lat="14.194078">
                <ele>15.999023</ele>
                <time>2006-03-26T03:31:53Z</time>
            </trkpt>
            <trkpt lon="101.365807" lat="14.194078">
                <ele>14.076416</ele>
                <time>2006-03-26T03:31:59Z</time>
            </trkpt>
            <trkpt lon="101.365807" lat="14.194078">
                <ele>14.076416</ele>
                <time>2006-03-26T03:31:59Z</time>
            </trkpt>
            <trkpt lon="101.365507" lat="14.194036">
                <ele>15.999023</ele>
                <time>2006-03-26T03:32:11Z</time>
            </trkpt>
            <trkpt lon="101.365507" lat="14.194036">
                <ele>15.999023</ele>
                <time>2006-03-26T03:32:11Z</time>
            </trkpt>
            <trkpt lon="101.364884" lat="14.193821">
                <ele>15.518433</ele>
                <time>2006-03-26T03:32:30Z</time>
            </trkpt>
            <trkpt lon="101.364884" lat="14.193821">
                <ele>15.518433</ele>
                <time>2006-03-26T03:32:30Z</time>
            </trkpt>
            <trkpt lon="101.364477" lat="14.193392">
                <ele>15.518433</ele>
                <time>2006-03-26T03:32:46Z</time>
            </trkpt>
            <trkpt lon="101.364477" lat="14.193392">
                <ele>15.518433</ele>
                <time>2006-03-26T03:32:46Z</time>
            </trkpt>
            <trkpt lon="101.364069" lat="14.193413">
                <ele>16.960449</ele>
                <time>2006-03-26T03:33:00Z</time>
            </trkpt>
            <trkpt lon="101.364069" lat="14.193413">
                <ele>16.960449</ele>
                <time>2006-03-26T03:33:00Z</time>
            </trkpt>
            <trkpt lon="101.364026" lat="14.193456">
                <ele>16.479736</ele>
                <time>2006-03-26T03:33:15Z</time>
            </trkpt>
            <trkpt lon="101.364026" lat="14.193456">
                <ele>16.479736</ele>
                <time>2006-03-26T03:33:15Z</time>
            </trkpt>
            <trkpt lon="101.363940" lat="14.193113">
                <ele>17.921753</ele>
                <time>2006-03-26T03:33:34Z</time>
            </trkpt>
            <trkpt lon="101.363940" lat="14.193113">
                <ele>17.921753</ele>
                <time>2006-03-26T03:33:34Z</time>
            </trkpt>
            <trkpt lon="101.363940" lat="14.192705">
                <ele>18.402344</ele>
                <time>2006-03-26T03:33:57Z</time>
            </trkpt>
            <trkpt lon="101.363940" lat="14.192705">
                <ele>18.402344</ele>
                <time>2006-03-26T03:33:57Z</time>
            </trkpt>
            <trkpt lon="101.363940" lat="14.192684">
                <ele>17.921753</ele>
                <time>2006-03-26T03:34:24Z</time>
            </trkpt>
            <trkpt lon="101.363940" lat="14.192684">
                <ele>17.921753</ele>
                <time>2006-03-26T03:34:24Z</time>
            </trkpt>
            <trkpt lon="101.363983" lat="14.192727">
                <ele>19.363770</ele>
                <time>2006-03-26T03:34:40Z</time>
            </trkpt>
            <trkpt lon="101.363983" lat="14.192727">
                <ele>19.363770</ele>
                <time>2006-03-26T03:34:40Z</time>
            </trkpt>
            <trkpt lon="101.363940" lat="14.192619">
                <ele>20.805664</ele>
                <time>2006-03-26T03:34:49Z</time>
            </trkpt>
            <trkpt lon="101.363940" lat="14.192619">
                <ele>20.805664</ele>
                <time>2006-03-26T03:34:49Z</time>
            </trkpt>
            <trkpt lon="101.363897" lat="14.192619">
                <ele>21.286377</ele>
                <time>2006-03-26T03:34:55Z</time>
            </trkpt>
            <trkpt lon="101.363897" lat="14.192619">
                <ele>21.286377</ele>
                <time>2006-03-26T03:34:55Z</time>
            </trkpt>
            <trkpt lon="101.363339" lat="14.192898">
                <ele>20.805664</ele>
                <time>2006-03-26T03:35:20Z</time>
            </trkpt>
            <trkpt lon="101.363339" lat="14.192898">
                <ele>20.805664</ele>
                <time>2006-03-26T03:35:20Z</time>
            </trkpt>
            <trkpt lon="101.363254" lat="14.192963">
                <ele>20.805664</ele>
                <time>2006-03-26T03:35:25Z</time>
            </trkpt>
            <trkpt lon="101.363254" lat="14.192963">
                <ele>20.805664</ele>
                <time>2006-03-26T03:35:25Z</time>
            </trkpt>
            <trkpt lon="101.363254" lat="14.193048">
                <ele>18.402344</ele>
                <time>2006-03-26T03:35:31Z</time>
            </trkpt>
            <trkpt lon="101.363254" lat="14.193048">
                <ele>18.402344</ele>
                <time>2006-03-26T03:35:31Z</time>
            </trkpt>
            <trkpt lon="101.363618" lat="14.193649">
                <ele>19.844360</ele>
                <time>2006-03-26T03:35:52Z</time>
            </trkpt>
            <trkpt lon="101.363618" lat="14.193649">
                <ele>19.844360</ele>
                <time>2006-03-26T03:35:52Z</time>
            </trkpt>
            <trkpt lon="101.363683" lat="14.193799">
                <ele>20.324951</ele>
                <time>2006-03-26T03:35:56Z</time>
            </trkpt>
            <trkpt lon="101.363683" lat="14.193799">
                <ele>20.324951</ele>
                <time>2006-03-26T03:35:56Z</time>
            </trkpt>
            <trkpt lon="101.363854" lat="14.193907">
                <ele>19.844360</ele>
                <time>2006-03-26T03:36:01Z</time>
            </trkpt>
            <trkpt lon="101.363854" lat="14.193907">
                <ele>19.844360</ele>
                <time>2006-03-26T03:36:01Z</time>
            </trkpt>
            <trkpt lon="101.363962" lat="14.194229">
                <ele>19.844360</ele>
                <time>2006-03-26T03:36:09Z</time>
            </trkpt>
            <trkpt lon="101.363962" lat="14.194229">
                <ele>19.844360</ele>
                <time>2006-03-26T03:36:09Z</time>
            </trkpt>
            <trkpt lon="101.363876" lat="14.194314">
                <ele>20.324951</ele>
                <time>2006-03-26T03:36:13Z</time>
            </trkpt>
            <trkpt lon="101.363876" lat="14.194314">
                <ele>20.324951</ele>
                <time>2006-03-26T03:36:13Z</time>
            </trkpt>
            <trkpt lon="101.363704" lat="14.194379">
                <ele>21.286377</ele>
                <time>2006-03-26T03:36:17Z</time>
            </trkpt>
            <trkpt lon="101.363704" lat="14.194379">
                <ele>21.286377</ele>
                <time>2006-03-26T03:36:17Z</time>
            </trkpt>
            <trkpt lon="101.363490" lat="14.194679">
                <ele>20.324951</ele>
                <time>2006-03-26T03:36:30Z</time>
            </trkpt>
            <trkpt lon="101.363490" lat="14.194679">
                <ele>20.324951</ele>
                <time>2006-03-26T03:36:30Z</time>
            </trkpt>
            <trkpt lon="101.363554" lat="14.194722">
                <ele>20.324951</ele>
                <time>2006-03-26T03:36:36Z</time>
            </trkpt>
            <trkpt lon="101.363554" lat="14.194722">
                <ele>20.324951</ele>
                <time>2006-03-26T03:36:36Z</time>
            </trkpt>
            <trkpt lon="101.363554" lat="14.194722">
                <ele>20.805664</ele>
                <time>2006-03-26T03:36:42Z</time>
            </trkpt>
            <trkpt lon="101.363554" lat="14.194722">
                <ele>20.805664</ele>
                <time>2006-03-26T03:36:42Z</time>
            </trkpt>
            <trkpt lon="101.363468" lat="14.194701">
                <ele>21.766968</ele>
                <time>2006-03-26T03:36:47Z</time>
            </trkpt>
            <trkpt lon="101.363468" lat="14.194701">
                <ele>21.766968</ele>
                <time>2006-03-26T03:36:47Z</time>
            </trkpt>
            <trkpt lon="101.362803" lat="14.194486">
                <ele>23.208984</ele>
                <time>2006-03-26T03:37:04Z</time>
            </trkpt>
            <trkpt lon="101.362803" lat="14.194486">
                <ele>23.208984</ele>
                <time>2006-03-26T03:37:04Z</time>
            </trkpt>
            <trkpt lon="101.362288" lat="14.194164">
                <ele>23.208984</ele>
                <time>2006-03-26T03:37:17Z</time>
            </trkpt>
            <trkpt lon="101.362288" lat="14.194164">
                <ele>23.208984</ele>
                <time>2006-03-26T03:37:17Z</time>
            </trkpt>
            <trkpt lon="101.361923" lat="14.193499">
                <ele>19.363770</ele>
                <time>2006-03-26T03:37:35Z</time>
            </trkpt>
            <trkpt lon="101.361923" lat="14.193499">
                <ele>19.363770</ele>
                <time>2006-03-26T03:37:35Z</time>
            </trkpt>
            <trkpt lon="101.361601" lat="14.192705">
                <ele>18.402344</ele>
                <time>2006-03-26T03:37:55Z</time>
            </trkpt>
            <trkpt lon="101.361601" lat="14.192705">
                <ele>18.402344</ele>
                <time>2006-03-26T03:37:55Z</time>
            </trkpt>
            <trkpt lon="101.361279" lat="14.192126">
                <ele>18.402344</ele>
                <time>2006-03-26T03:38:15Z</time>
            </trkpt>
            <trkpt lon="101.361279" lat="14.192126">
                <ele>18.402344</ele>
                <time>2006-03-26T03:38:15Z</time>
            </trkpt>
            <trkpt lon="101.360722" lat="14.191504">
                <ele>18.402344</ele>
                <time>2006-03-26T03:38:36Z</time>
            </trkpt>
            <trkpt lon="101.360722" lat="14.191504">
                <ele>18.402344</ele>
                <time>2006-03-26T03:38:36Z</time>
            </trkpt>
            <trkpt lon="101.360679" lat="14.191546">
                <ele>18.402344</ele>
                <time>2006-03-26T03:38:43Z</time>
            </trkpt>
            <trkpt lon="101.360679" lat="14.191546">
                <ele>18.402344</ele>
                <time>2006-03-26T03:38:43Z</time>
            </trkpt>
            <trkpt lon="101.361001" lat="14.191847">
                <ele>19.363770</ele>
                <time>2006-03-26T03:38:59Z</time>
            </trkpt>
            <trkpt lon="101.361001" lat="14.191847">
                <ele>19.363770</ele>
                <time>2006-03-26T03:38:59Z</time>
            </trkpt>
            <trkpt lon="101.361473" lat="14.192448">
                <ele>17.441162</ele>
                <time>2006-03-26T03:39:20Z</time>
            </trkpt>
            <trkpt lon="101.361473" lat="14.192448">
                <ele>17.441162</ele>
                <time>2006-03-26T03:39:20Z</time>
            </trkpt>
            <trkpt lon="101.361644" lat="14.192855">
                <ele>17.441162</ele>
                <time>2006-03-26T03:39:35Z</time>
            </trkpt>
            <trkpt lon="101.361644" lat="14.192855">
                <ele>17.441162</ele>
                <time>2006-03-26T03:39:35Z</time>
            </trkpt>
            <trkpt lon="101.361516" lat="14.192898">
                <ele>17.441162</ele>
                <time>2006-03-26T03:39:40Z</time>
            </trkpt>
            <trkpt lon="101.361516" lat="14.192898">
                <ele>17.441162</ele>
                <time>2006-03-26T03:39:40Z</time>
            </trkpt>
            <trkpt lon="101.361473" lat="14.192877">
                <ele>17.441162</ele>
                <time>2006-03-26T03:39:44Z</time>
            </trkpt>
            <trkpt lon="101.361473" lat="14.192877">
                <ele>17.441162</ele>
                <time>2006-03-26T03:39:44Z</time>
            </trkpt>
            <trkpt lon="101.361537" lat="14.192855">
                <ele>17.921753</ele>
                <time>2006-03-26T03:39:49Z</time>
            </trkpt>
            <trkpt lon="101.361537" lat="14.192855">
                <ele>17.921753</ele>
                <time>2006-03-26T03:39:49Z</time>
            </trkpt>
            <trkpt lon="101.362052" lat="14.192576">
                <ele>18.883057</ele>
                <time>2006-03-26T03:40:15Z</time>
            </trkpt>
            <trkpt lon="101.362052" lat="14.192576">
                <ele>18.883057</ele>
                <time>2006-03-26T03:40:15Z</time>
            </trkpt>
            <trkpt lon="101.362524" lat="14.192598">
                <ele>15.999023</ele>
                <time>2006-03-26T03:40:35Z</time>
            </trkpt>
            <trkpt lon="101.362524" lat="14.192598">
                <ele>15.999023</ele>
                <time>2006-03-26T03:40:35Z</time>
            </trkpt>
            <trkpt lon="101.362760" lat="14.192555">
                <ele>15.518433</ele>
                <time>2006-03-26T03:40:50Z</time>
            </trkpt>
            <trkpt lon="101.362760" lat="14.192555">
                <ele>15.518433</ele>
                <time>2006-03-26T03:40:50Z</time>
            </trkpt>
            <trkpt lon="101.362782" lat="14.192512">
                <ele>17.441162</ele>
                <time>2006-03-26T03:41:01Z</time>
            </trkpt>
            <trkpt lon="101.362782" lat="14.192512">
                <ele>17.441162</ele>
                <time>2006-03-26T03:41:01Z</time>
            </trkpt>
            <trkpt lon="101.362739" lat="14.192491">
                <ele>17.441162</ele>
                <time>2006-03-26T03:41:28Z</time>
            </trkpt>
            <trkpt lon="101.362739" lat="14.192491">
                <ele>17.441162</ele>
                <time>2006-03-26T03:41:28Z</time>
            </trkpt>
            <trkpt lon="101.362717" lat="14.192555">
                <ele>16.960449</ele>
                <time>2006-03-26T03:41:32Z</time>
            </trkpt>
            <trkpt lon="101.362717" lat="14.192555">
                <ele>16.960449</ele>
                <time>2006-03-26T03:41:32Z</time>
            </trkpt>
            <trkpt lon="101.362696" lat="14.192555">
                <ele>17.921753</ele>
                <time>2006-03-26T03:41:42Z</time>
            </trkpt>
            <trkpt lon="101.362696" lat="14.192555">
                <ele>17.921753</ele>
                <time>2006-03-26T03:41:42Z</time>
            </trkpt>
            <trkpt lon="101.362224" lat="14.192877">
                <ele>19.844360</ele>
                <time>2006-03-26T03:42:04Z</time>
            </trkpt>
            <trkpt lon="101.362224" lat="14.192877">
                <ele>19.844360</ele>
                <time>2006-03-26T03:42:04Z</time>
            </trkpt>
            <trkpt lon="101.362095" lat="14.193006">
                <ele>20.324951</ele>
                <time>2006-03-26T03:42:09Z</time>
            </trkpt>
            <trkpt lon="101.362095" lat="14.193006">
                <ele>20.324951</ele>
                <time>2006-03-26T03:42:09Z</time>
            </trkpt>
            <trkpt lon="101.361902" lat="14.192898">
                <ele>19.363770</ele>
                <time>2006-03-26T03:42:18Z</time>
            </trkpt>
            <trkpt lon="101.361902" lat="14.192898">
                <ele>19.363770</ele>
                <time>2006-03-26T03:42:18Z</time>
            </trkpt>
            <trkpt lon="101.361666" lat="14.192598">
                <ele>20.805664</ele>
                <time>2006-03-26T03:42:30Z</time>
            </trkpt>
            <trkpt lon="101.361666" lat="14.192598">
                <ele>20.805664</ele>
                <time>2006-03-26T03:42:30Z</time>
            </trkpt>
            <trkpt lon="101.360936" lat="14.192684">
                <ele>20.805664</ele>
                <time>2006-03-26T03:42:49Z</time>
            </trkpt>
            <trkpt lon="101.360936" lat="14.192684">
                <ele>20.805664</ele>
                <time>2006-03-26T03:42:49Z</time>
            </trkpt>
            <trkpt lon="101.360593" lat="14.192533">
                <ele>20.805664</ele>
                <time>2006-03-26T03:43:09Z</time>
            </trkpt>
            <trkpt lon="101.360593" lat="14.192533">
                <ele>20.805664</ele>
                <time>2006-03-26T03:43:09Z</time>
            </trkpt>
            <trkpt lon="101.360507" lat="14.192448">
                <ele>20.805664</ele>
                <time>2006-03-26T03:43:15Z</time>
            </trkpt>
            <trkpt lon="101.360507" lat="14.192448">
                <ele>20.805664</ele>
                <time>2006-03-26T03:43:15Z</time>
            </trkpt>
            <trkpt lon="101.360507" lat="14.192469">
                <ele>20.805664</ele>
                <time>2006-03-26T03:43:17Z</time>
            </trkpt>
            <trkpt lon="101.360507" lat="14.192469">
                <ele>20.805664</ele>
                <time>2006-03-26T03:43:17Z</time>
            </trkpt>
            <trkpt lon="101.360700" lat="14.192576">
                <ele>19.844360</ele>
                <time>2006-03-26T03:43:23Z</time>
            </trkpt>
            <trkpt lon="101.360700" lat="14.192576">
                <ele>19.844360</ele>
                <time>2006-03-26T03:43:23Z</time>
            </trkpt>
            <trkpt lon="101.360936" lat="14.192855">
                <ele>20.324951</ele>
                <time>2006-03-26T03:43:36Z</time>
            </trkpt>
            <trkpt lon="101.360936" lat="14.192855">
                <ele>20.324951</ele>
                <time>2006-03-26T03:43:36Z</time>
            </trkpt>
            <trkpt lon="101.360979" lat="14.193263">
                <ele>20.324951</ele>
                <time>2006-03-26T03:43:46Z</time>
            </trkpt>
            <trkpt lon="101.360979" lat="14.193263">
                <ele>20.324951</ele>
                <time>2006-03-26T03:43:46Z</time>
            </trkpt>
            <trkpt lon="101.360700" lat="14.193349">
                <ele>20.324951</ele>
                <time>2006-03-26T03:43:54Z</time>
            </trkpt>
            <trkpt lon="101.360700" lat="14.193349">
                <ele>20.324951</ele>
                <time>2006-03-26T03:43:54Z</time>
            </trkpt>
            <trkpt lon="101.360657" lat="14.193435">
                <ele>20.324951</ele>
                <time>2006-03-26T03:43:57Z</time>
            </trkpt>
            <trkpt lon="101.360657" lat="14.193435">
                <ele>20.324951</ele>
                <time>2006-03-26T03:43:57Z</time>
            </trkpt>
            <trkpt lon="101.360571" lat="14.193778">
                <ele>19.844360</ele>
                <time>2006-03-26T03:44:08Z</time>
            </trkpt>
            <trkpt lon="101.360571" lat="14.193778">
                <ele>19.844360</ele>
                <time>2006-03-26T03:44:08Z</time>
            </trkpt>
            <trkpt lon="101.360400" lat="14.194100">
                <ele>20.324951</ele>
                <time>2006-03-26T03:44:24Z</time>
            </trkpt>
            <trkpt lon="101.360400" lat="14.194100">
                <ele>20.324951</ele>
                <time>2006-03-26T03:44:24Z</time>
            </trkpt>
            <trkpt lon="101.360271" lat="14.194400">
                <ele>20.324951</ele>
                <time>2006-03-26T03:44:41Z</time>
            </trkpt>
            <trkpt lon="101.360271" lat="14.194400">
                <ele>20.324951</ele>
                <time>2006-03-26T03:44:41Z</time>
            </trkpt>
            <trkpt lon="101.360228" lat="14.194679">
                <ele>19.363770</ele>
                <time>2006-03-26T03:44:56Z</time>
            </trkpt>
            <trkpt lon="101.360228" lat="14.194679">
                <ele>19.363770</ele>
                <time>2006-03-26T03:44:56Z</time>
            </trkpt>
            <trkpt lon="101.360142" lat="14.194722">
                <ele>19.363770</ele>
                <time>2006-03-26T03:45:03Z</time>
            </trkpt>
            <trkpt lon="101.360142" lat="14.194722">
                <ele>19.363770</ele>
                <time>2006-03-26T03:45:03Z</time>
            </trkpt>
            <trkpt lon="101.360121" lat="14.194787">
                <ele>19.363770</ele>
                <time>2006-03-26T03:45:07Z</time>
            </trkpt>
            <trkpt lon="101.360121" lat="14.194787">
                <ele>19.363770</ele>
                <time>2006-03-26T03:45:07Z</time>
            </trkpt>
            <trkpt lon="101.360035" lat="14.194915">
                <ele>18.402344</ele>
                <time>2006-03-26T03:45:19Z</time>
            </trkpt>
            <trkpt lon="101.360035" lat="14.194915">
                <ele>18.402344</ele>
                <time>2006-03-26T03:45:19Z</time>
            </trkpt>
            <trkpt lon="101.360056" lat="14.195216">
                <ele>18.402344</ele>
                <time>2006-03-26T03:45:35Z</time>
            </trkpt>
            <trkpt lon="101.360056" lat="14.195216">
                <ele>18.402344</ele>
                <time>2006-03-26T03:45:35Z</time>
            </trkpt>
            <trkpt lon="101.360078" lat="14.195409">
                <ele>18.402344</ele>
                <time>2006-03-26T03:45:51Z</time>
            </trkpt>
            <trkpt lon="101.360078" lat="14.195409">
                <ele>18.402344</ele>
                <time>2006-03-26T03:45:51Z</time>
            </trkpt>
            <trkpt lon="101.360078" lat="14.195473">
                <ele>15.999023</ele>
                <time>2006-03-26T03:46:04Z</time>
            </trkpt>
            <trkpt lon="101.360078" lat="14.195473">
                <ele>15.999023</ele>
                <time>2006-03-26T03:46:04Z</time>
            </trkpt>
            <trkpt lon="101.360078" lat="14.195516">
                <ele>16.479736</ele>
                <time>2006-03-26T03:46:08Z</time>
            </trkpt>
            <trkpt lon="101.360078" lat="14.195516">
                <ele>16.479736</ele>
                <time>2006-03-26T03:46:08Z</time>
            </trkpt>
            <trkpt lon="101.360121" lat="14.195602">
                <ele>15.999023</ele>
                <time>2006-03-26T03:46:17Z</time>
            </trkpt>
            <trkpt lon="101.360121" lat="14.195602">
                <ele>15.999023</ele>
                <time>2006-03-26T03:46:17Z</time>
            </trkpt>
            <trkpt lon="101.360142" lat="14.195645">
                <ele>16.479736</ele>
                <time>2006-03-26T03:46:21Z</time>
            </trkpt>
            <trkpt lon="101.360142" lat="14.195645">
                <ele>16.479736</ele>
                <time>2006-03-26T03:46:21Z</time>
            </trkpt>
            <trkpt lon="101.360207" lat="14.195752">
                <ele>16.960449</ele>
                <time>2006-03-26T03:46:33Z</time>
            </trkpt>
            <trkpt lon="101.360207" lat="14.195752">
                <ele>16.960449</ele>
                <time>2006-03-26T03:46:33Z</time>
            </trkpt>
            <trkpt lon="101.360250" lat="14.196010">
                <ele>18.883057</ele>
                <time>2006-03-26T03:46:48Z</time>
            </trkpt>
            <trkpt lon="101.360250" lat="14.196010">
                <ele>18.883057</ele>
                <time>2006-03-26T03:46:48Z</time>
            </trkpt>
            <trkpt lon="101.360250" lat="14.196160">
                <ele>20.324951</ele>
                <time>2006-03-26T03:46:57Z</time>
            </trkpt>
            <trkpt lon="101.360250" lat="14.196160">
                <ele>20.324951</ele>
                <time>2006-03-26T03:46:57Z</time>
            </trkpt>
            <trkpt lon="101.360142" lat="14.196203">
                <ele>19.363770</ele>
                <time>2006-03-26T03:47:04Z</time>
            </trkpt>
            <trkpt lon="101.360142" lat="14.196203">
                <ele>19.363770</ele>
                <time>2006-03-26T03:47:04Z</time>
            </trkpt>
            <trkpt lon="101.360121" lat="14.196246">
                <ele>18.883057</ele>
                <time>2006-03-26T03:47:10Z</time>
            </trkpt>
            <trkpt lon="101.360121" lat="14.196246">
                <ele>18.883057</ele>
                <time>2006-03-26T03:47:10Z</time>
            </trkpt>
            <trkpt lon="101.360121" lat="14.196246">
                <ele>18.402344</ele>
                <time>2006-03-26T03:47:16Z</time>
            </trkpt>
            <trkpt lon="101.360121" lat="14.196246">
                <ele>18.402344</ele>
                <time>2006-03-26T03:47:16Z</time>
            </trkpt>
            <trkpt lon="101.360142" lat="14.196310">
                <ele>17.441162</ele>
                <time>2006-03-26T03:47:25Z</time>
            </trkpt>
            <trkpt lon="101.360142" lat="14.196310">
                <ele>17.441162</ele>
                <time>2006-03-26T03:47:25Z</time>
            </trkpt>
            <trkpt lon="101.360207" lat="14.196632">
                <ele>18.402344</ele>
                <time>2006-03-26T03:47:39Z</time>
            </trkpt>
            <trkpt lon="101.360207" lat="14.196632">
                <ele>18.402344</ele>
                <time>2006-03-26T03:47:39Z</time>
            </trkpt>
            <trkpt lon="101.360314" lat="14.197061">
                <ele>18.402344</ele>
                <time>2006-03-26T03:47:57Z</time>
            </trkpt>
            <trkpt lon="101.360314" lat="14.197061">
                <ele>18.402344</ele>
                <time>2006-03-26T03:47:57Z</time>
            </trkpt>
            <trkpt lon="101.360421" lat="14.197447">
                <ele>18.402344</ele>
                <time>2006-03-26T03:48:14Z</time>
            </trkpt>
            <trkpt lon="101.360421" lat="14.197447">
                <ele>18.402344</ele>
                <time>2006-03-26T03:48:14Z</time>
            </trkpt>
            <trkpt lon="101.360421" lat="14.197748">
                <ele>19.363770</ele>
                <time>2006-03-26T03:48:32Z</time>
            </trkpt>
            <trkpt lon="101.360421" lat="14.197748">
                <ele>19.363770</ele>
                <time>2006-03-26T03:48:32Z</time>
            </trkpt>
            <trkpt lon="101.360121" lat="14.197898">
                <ele>18.402344</ele>
                <time>2006-03-26T03:48:48Z</time>
            </trkpt>
            <trkpt lon="101.360121" lat="14.197898">
                <ele>18.402344</ele>
                <time>2006-03-26T03:48:48Z</time>
            </trkpt>
            <trkpt lon="101.360292" lat="14.198434">
                <ele>20.805664</ele>
                <time>2006-03-26T03:49:06Z</time>
            </trkpt>
            <trkpt lon="101.360292" lat="14.198434">
                <ele>20.805664</ele>
                <time>2006-03-26T03:49:06Z</time>
            </trkpt>
            <trkpt lon="101.360314" lat="14.198563">
                <ele>22.247559</ele>
                <time>2006-03-26T03:49:10Z</time>
            </trkpt>
            <trkpt lon="101.360314" lat="14.198563">
                <ele>22.247559</ele>
                <time>2006-03-26T03:49:10Z</time>
            </trkpt>
            <trkpt lon="101.360207" lat="14.198585">
                <ele>22.247559</ele>
                <time>2006-03-26T03:49:14Z</time>
            </trkpt>
            <trkpt lon="101.360207" lat="14.198585">
                <ele>22.247559</ele>
                <time>2006-03-26T03:49:14Z</time>
            </trkpt>
            <trkpt lon="101.359842" lat="14.198542">
                <ele>21.766968</ele>
                <time>2006-03-26T03:49:24Z</time>
            </trkpt>
            <trkpt lon="101.359842" lat="14.198542">
                <ele>21.766968</ele>
                <time>2006-03-26T03:49:24Z</time>
            </trkpt>
            <trkpt lon="101.359112" lat="14.198756">
                <ele>19.844360</ele>
                <time>2006-03-26T03:49:43Z</time>
            </trkpt>
            <trkpt lon="101.359112" lat="14.198756">
                <ele>19.844360</ele>
                <time>2006-03-26T03:49:43Z</time>
            </trkpt>
            <trkpt lon="101.358447" lat="14.198885">
                <ele>17.921753</ele>
                <time>2006-03-26T03:50:00Z</time>
            </trkpt>
            <trkpt lon="101.358447" lat="14.198885">
                <ele>17.921753</ele>
                <time>2006-03-26T03:50:00Z</time>
            </trkpt>
            <trkpt lon="101.358426" lat="14.198885">
                <ele>17.921753</ele>
                <time>2006-03-26T03:50:01Z</time>
            </trkpt>
            <trkpt lon="101.358426" lat="14.198885">
                <ele>17.921753</ele>
                <time>2006-03-26T03:50:01Z</time>
            </trkpt>
            <trkpt lon="101.358383" lat="14.198949">
                <ele>17.921753</ele>
                <time>2006-03-26T03:50:05Z</time>
            </trkpt>
            <trkpt lon="101.358383" lat="14.198949">
                <ele>17.921753</ele>
                <time>2006-03-26T03:50:05Z</time>
            </trkpt>
            <trkpt lon="101.358490" lat="14.199550">
                <ele>18.402344</ele>
                <time>2006-03-26T03:50:23Z</time>
            </trkpt>
            <trkpt lon="101.358490" lat="14.199550">
                <ele>18.402344</ele>
                <time>2006-03-26T03:50:23Z</time>
            </trkpt>
            <trkpt lon="101.358576" lat="14.200301">
                <ele>19.363770</ele>
                <time>2006-03-26T03:50:42Z</time>
            </trkpt>
            <trkpt lon="101.358576" lat="14.200301">
                <ele>19.363770</ele>
                <time>2006-03-26T03:50:42Z</time>
            </trkpt>
            <trkpt lon="101.358533" lat="14.200902">
                <ele>23.208984</ele>
                <time>2006-03-26T03:50:59Z</time>
            </trkpt>
            <trkpt lon="101.358533" lat="14.200902">
                <ele>23.208984</ele>
                <time>2006-03-26T03:50:59Z</time>
            </trkpt>
            <trkpt lon="101.358511" lat="14.200838">
                <ele>21.766968</ele>
                <time>2006-03-26T03:51:11Z</time>
            </trkpt>
            <trkpt lon="101.358511" lat="14.200838">
                <ele>21.766968</ele>
                <time>2006-03-26T03:51:11Z</time>
            </trkpt>
            <trkpt lon="101.358511" lat="14.200730">
                <ele>22.247559</ele>
                <time>2006-03-26T03:51:27Z</time>
            </trkpt>
            <trkpt lon="101.358511" lat="14.200730">
                <ele>22.247559</ele>
                <time>2006-03-26T03:51:27Z</time>
            </trkpt>
            <trkpt lon="101.358469" lat="14.200666">
                <ele>23.689575</ele>
                <time>2006-03-26T03:52:05Z</time>
            </trkpt>
            <trkpt lon="101.358469" lat="14.200666">
                <ele>23.689575</ele>
                <time>2006-03-26T03:52:05Z</time>
            </trkpt>
            <trkpt lon="101.358469" lat="14.200666">
                <ele>24.651001</ele>
                <time>2006-03-26T03:52:21Z</time>
            </trkpt>
            <trkpt lon="101.358469" lat="14.200666">
                <ele>24.651001</ele>
                <time>2006-03-26T03:52:21Z</time>
            </trkpt>
            <trkpt lon="101.358747" lat="14.200902">
                <ele>26.092896</ele>
                <time>2006-03-26T03:52:40Z</time>
            </trkpt>
            <trkpt lon="101.358747" lat="14.200902">
                <ele>26.092896</ele>
                <time>2006-03-26T03:52:40Z</time>
            </trkpt>
            <trkpt lon="101.358898" lat="14.201009">
                <ele>26.092896</ele>
                <time>2006-03-26T03:52:48Z</time>
            </trkpt>
            <trkpt lon="101.358898" lat="14.201009">
                <ele>26.092896</ele>
                <time>2006-03-26T03:52:48Z</time>
            </trkpt>
            <trkpt lon="101.358919" lat="14.200988">
                <ele>27.054321</ele>
                <time>2006-03-26T03:52:58Z</time>
            </trkpt>
            <trkpt lon="101.358919" lat="14.200988">
                <ele>27.054321</ele>
                <time>2006-03-26T03:52:58Z</time>
            </trkpt>
            <trkpt lon="101.358898" lat="14.200966">
                <ele>25.612305</ele>
                <time>2006-03-26T03:53:35Z</time>
            </trkpt>
            <trkpt lon="101.358898" lat="14.200966">
                <ele>25.612305</ele>
                <time>2006-03-26T03:53:35Z</time>
            </trkpt>
            <trkpt lon="101.358619" lat="14.200752">
                <ele>26.092896</ele>
                <time>2006-03-26T03:54:03Z</time>
            </trkpt>
            <trkpt lon="101.358619" lat="14.200752">
                <ele>26.092896</ele>
                <time>2006-03-26T03:54:03Z</time>
            </trkpt>
            <trkpt lon="101.358554" lat="14.200644">
                <ele>19.363770</ele>
                <time>2006-03-26T03:57:36Z</time>
            </trkpt>
            <trkpt lon="101.358554" lat="14.200644">
                <ele>19.363770</ele>
                <time>2006-03-26T03:57:36Z</time>
            </trkpt>
            <trkpt lon="101.358554" lat="14.200366">
                <ele>22.247559</ele>
                <time>2006-03-26T03:57:52Z</time>
            </trkpt>
            <trkpt lon="101.358554" lat="14.200366">
                <ele>22.247559</ele>
                <time>2006-03-26T03:57:52Z</time>
            </trkpt>
            <trkpt lon="101.358490" lat="14.199529">
                <ele>22.247559</ele>
                <time>2006-03-26T03:58:13Z</time>
            </trkpt>
            <trkpt lon="101.358490" lat="14.199529">
                <ele>22.247559</ele>
                <time>2006-03-26T03:58:13Z</time>
            </trkpt>
            <trkpt lon="101.358383" lat="14.198992">
                <ele>18.883057</ele>
                <time>2006-03-26T03:58:28Z</time>
            </trkpt>
            <trkpt lon="101.358383" lat="14.198992">
                <ele>18.883057</ele>
                <time>2006-03-26T03:58:28Z</time>
            </trkpt>
            <trkpt lon="101.358018" lat="14.198799">
                <ele>18.883057</ele>
                <time>2006-03-26T03:58:41Z</time>
            </trkpt>
            <trkpt lon="101.358018" lat="14.198799">
                <ele>18.883057</ele>
                <time>2006-03-26T03:58:41Z</time>
            </trkpt>
            <trkpt lon="101.357439" lat="14.198713">
                <ele>17.921753</ele>
                <time>2006-03-26T03:58:57Z</time>
            </trkpt>
            <trkpt lon="101.357439" lat="14.198713">
                <ele>17.921753</ele>
                <time>2006-03-26T03:58:57Z</time>
            </trkpt>
            <trkpt lon="101.356752" lat="14.198756">
                <ele>17.441162</ele>
                <time>2006-03-26T03:59:14Z</time>
            </trkpt>
            <trkpt lon="101.356752" lat="14.198756">
                <ele>17.441162</ele>
                <time>2006-03-26T03:59:14Z</time>
            </trkpt>
            <trkpt lon="101.356151" lat="14.198821">
                <ele>16.960449</ele>
                <time>2006-03-26T03:59:30Z</time>
            </trkpt>
            <trkpt lon="101.356151" lat="14.198821">
                <ele>16.960449</ele>
                <time>2006-03-26T03:59:30Z</time>
            </trkpt>
            <trkpt lon="101.356022" lat="14.198906">
                <ele>15.999023</ele>
                <time>2006-03-26T03:59:34Z</time>
            </trkpt>
            <trkpt lon="101.356022" lat="14.198906">
                <ele>15.999023</ele>
                <time>2006-03-26T03:59:34Z</time>
            </trkpt>
            <trkpt lon="101.355979" lat="14.198992">
                <ele>16.479736</ele>
                <time>2006-03-26T03:59:36Z</time>
            </trkpt>
            <trkpt lon="101.355979" lat="14.198992">
                <ele>16.479736</ele>
                <time>2006-03-26T03:59:36Z</time>
            </trkpt>
            <trkpt lon="101.355915" lat="14.199185">
                <ele>17.441162</ele>
                <time>2006-03-26T03:59:41Z</time>
            </trkpt>
            <trkpt lon="101.355915" lat="14.199185">
                <ele>17.441162</ele>
                <time>2006-03-26T03:59:41Z</time>
            </trkpt>
            <trkpt lon="101.355851" lat="14.199314">
                <ele>17.441162</ele>
                <time>2006-03-26T03:59:44Z</time>
            </trkpt>
            <trkpt lon="101.355851" lat="14.199314">
                <ele>17.441162</ele>
                <time>2006-03-26T03:59:44Z</time>
            </trkpt>
            <trkpt lon="101.355786" lat="14.199336">
                <ele>17.441162</ele>
                <time>2006-03-26T03:59:46Z</time>
            </trkpt>
            <trkpt lon="101.355786" lat="14.199336">
                <ele>17.441162</ele>
                <time>2006-03-26T03:59:46Z</time>
            </trkpt>
            <trkpt lon="101.354713" lat="14.199035">
                <ele>17.441162</ele>
                <time>2006-03-26T04:00:11Z</time>
            </trkpt>
            <trkpt lon="101.354713" lat="14.199035">
                <ele>17.441162</ele>
                <time>2006-03-26T04:00:11Z</time>
            </trkpt>
            <trkpt lon="101.354113" lat="14.198906">
                <ele>17.921753</ele>
                <time>2006-03-26T04:00:24Z</time>
            </trkpt>
            <trkpt lon="101.354113" lat="14.198906">
                <ele>17.921753</ele>
                <time>2006-03-26T04:00:24Z</time>
            </trkpt>
            <trkpt lon="101.354027" lat="14.198885">
                <ele>17.441162</ele>
                <time>2006-03-26T04:00:26Z</time>
            </trkpt>
            <trkpt lon="101.354027" lat="14.198885">
                <ele>17.441162</ele>
                <time>2006-03-26T04:00:26Z</time>
            </trkpt>
            <trkpt lon="101.353555" lat="14.198456">
                <ele>17.921753</ele>
                <time>2006-03-26T04:00:41Z</time>
            </trkpt>
            <trkpt lon="101.353555" lat="14.198456">
                <ele>17.921753</ele>
                <time>2006-03-26T04:00:41Z</time>
            </trkpt>
            <trkpt lon="101.353340" lat="14.198413">
                <ele>17.921753</ele>
                <time>2006-03-26T04:00:46Z</time>
            </trkpt>
            <trkpt lon="101.353340" lat="14.198413">
                <ele>17.921753</ele>
                <time>2006-03-26T04:00:46Z</time>
            </trkpt>
            <trkpt lon="101.353211" lat="14.198434">
                <ele>17.921753</ele>
                <time>2006-03-26T04:00:49Z</time>
            </trkpt>
            <trkpt lon="101.353211" lat="14.198434">
                <ele>17.921753</ele>
                <time>2006-03-26T04:00:49Z</time>
            </trkpt>
            <trkpt lon="101.352932" lat="14.198606">
                <ele>17.921753</ele>
                <time>2006-03-26T04:00:56Z</time>
            </trkpt>
            <trkpt lon="101.352932" lat="14.198606">
                <ele>17.921753</ele>
                <time>2006-03-26T04:00:56Z</time>
            </trkpt>
            <trkpt lon="101.352782" lat="14.198735">
                <ele>17.921753</ele>
                <time>2006-03-26T04:01:01Z</time>
            </trkpt>
            <trkpt lon="101.352782" lat="14.198735">
                <ele>17.921753</ele>
                <time>2006-03-26T04:01:01Z</time>
            </trkpt>
            <trkpt lon="101.352675" lat="14.198799">
                <ele>17.441162</ele>
                <time>2006-03-26T04:01:04Z</time>
            </trkpt>
            <trkpt lon="101.352675" lat="14.198799">
                <ele>17.441162</ele>
                <time>2006-03-26T04:01:04Z</time>
            </trkpt>
            <trkpt lon="101.352439" lat="14.198713">
                <ele>17.441162</ele>
                <time>2006-03-26T04:01:09Z</time>
            </trkpt>
            <trkpt lon="101.352439" lat="14.198713">
                <ele>17.441162</ele>
                <time>2006-03-26T04:01:09Z</time>
            </trkpt>
            <trkpt lon="101.351860" lat="14.198091">
                <ele>17.921753</ele>
                <time>2006-03-26T04:01:27Z</time>
            </trkpt>
            <trkpt lon="101.351860" lat="14.198091">
                <ele>17.921753</ele>
                <time>2006-03-26T04:01:27Z</time>
            </trkpt>
            <trkpt lon="101.350701" lat="14.197361">
                <ele>17.921753</ele>
                <time>2006-03-26T04:01:56Z</time>
            </trkpt>
            <trkpt lon="101.350701" lat="14.197361">
                <ele>17.921753</ele>
                <time>2006-03-26T04:01:56Z</time>
            </trkpt>
            <trkpt lon="101.349907" lat="14.196889">
                <ele>17.441162</ele>
                <time>2006-03-26T04:02:16Z</time>
            </trkpt>
            <trkpt lon="101.349907" lat="14.196889">
                <ele>17.441162</ele>
                <time>2006-03-26T04:02:16Z</time>
            </trkpt>
            <trkpt lon="101.349735" lat="14.196846">
                <ele>17.441162</ele>
                <time>2006-03-26T04:02:20Z</time>
            </trkpt>
            <trkpt lon="101.349735" lat="14.196846">
                <ele>17.441162</ele>
                <time>2006-03-26T04:02:20Z</time>
            </trkpt>
            <trkpt lon="101.349564" lat="14.196804">
                <ele>17.441162</ele>
                <time>2006-03-26T04:02:24Z</time>
            </trkpt>
            <trkpt lon="101.349564" lat="14.196804">
                <ele>17.441162</ele>
                <time>2006-03-26T04:02:24Z</time>
            </trkpt>
            <trkpt lon="101.349070" lat="14.196825">
                <ele>17.441162</ele>
                <time>2006-03-26T04:02:35Z</time>
            </trkpt>
            <trkpt lon="101.349070" lat="14.196825">
                <ele>17.441162</ele>
                <time>2006-03-26T04:02:35Z</time>
            </trkpt>
            <trkpt lon="101.348984" lat="14.196761">
                <ele>17.921753</ele>
                <time>2006-03-26T04:02:38Z</time>
            </trkpt>
            <trkpt lon="101.348984" lat="14.196761">
                <ele>17.921753</ele>
                <time>2006-03-26T04:02:38Z</time>
            </trkpt>
            <trkpt lon="101.348662" lat="14.195902">
                <ele>18.402344</ele>
                <time>2006-03-26T04:02:58Z</time>
            </trkpt>
            <trkpt lon="101.348662" lat="14.195902">
                <ele>18.402344</ele>
                <time>2006-03-26T04:02:58Z</time>
            </trkpt>
            <trkpt lon="101.348619" lat="14.195817">
                <ele>18.402344</ele>
                <time>2006-03-26T04:03:00Z</time>
            </trkpt>
            <trkpt lon="101.348619" lat="14.195817">
                <ele>18.402344</ele>
                <time>2006-03-26T04:03:00Z</time>
            </trkpt>
            <trkpt lon="101.348233" lat="14.195795">
                <ele>18.402344</ele>
                <time>2006-03-26T04:03:09Z</time>
            </trkpt>
            <trkpt lon="101.348233" lat="14.195795">
                <ele>18.402344</ele>
                <time>2006-03-26T04:03:09Z</time>
            </trkpt>
            <trkpt lon="101.347396" lat="14.195709">
                <ele>16.960449</ele>
                <time>2006-03-26T04:03:27Z</time>
            </trkpt>
            <trkpt lon="101.347396" lat="14.195709">
                <ele>16.960449</ele>
                <time>2006-03-26T04:03:27Z</time>
            </trkpt>
            <trkpt lon="101.347010" lat="14.195302">
                <ele>16.960449</ele>
                <time>2006-03-26T04:03:39Z</time>
            </trkpt>
            <trkpt lon="101.347010" lat="14.195302">
                <ele>16.960449</ele>
                <time>2006-03-26T04:03:39Z</time>
            </trkpt>
            <trkpt lon="101.346753" lat="14.195259">
                <ele>16.960449</ele>
                <time>2006-03-26T04:03:45Z</time>
            </trkpt>
            <trkpt lon="101.346753" lat="14.195259">
                <ele>16.960449</ele>
                <time>2006-03-26T04:03:45Z</time>
            </trkpt>
            <trkpt lon="101.346667" lat="14.195237">
                <ele>17.441162</ele>
                <time>2006-03-26T04:03:47Z</time>
            </trkpt>
            <trkpt lon="101.346667" lat="14.195237">
                <ele>17.441162</ele>
                <time>2006-03-26T04:03:47Z</time>
            </trkpt>
            <trkpt lon="101.346409" lat="14.195130">
                <ele>17.921753</ele>
                <time>2006-03-26T04:03:53Z</time>
            </trkpt>
            <trkpt lon="101.346409" lat="14.195130">
                <ele>17.921753</ele>
                <time>2006-03-26T04:03:53Z</time>
            </trkpt>
            <trkpt lon="101.346259" lat="14.194980">
                <ele>17.921753</ele>
                <time>2006-03-26T04:03:58Z</time>
            </trkpt>
            <trkpt lon="101.346259" lat="14.194980">
                <ele>17.921753</ele>
                <time>2006-03-26T04:03:58Z</time>
            </trkpt>
            <trkpt lon="101.346173" lat="14.194851">
                <ele>17.921753</ele>
                <time>2006-03-26T04:04:01Z</time>
            </trkpt>
            <trkpt lon="101.346173" lat="14.194851">
                <ele>17.921753</ele>
                <time>2006-03-26T04:04:01Z</time>
            </trkpt>
            <trkpt lon="101.345916" lat="14.194036">
                <ele>16.960449</ele>
                <time>2006-03-26T04:04:17Z</time>
            </trkpt>
            <trkpt lon="101.345916" lat="14.194036">
                <ele>16.960449</ele>
                <time>2006-03-26T04:04:17Z</time>
            </trkpt>
            <trkpt lon="101.345873" lat="14.193971">
                <ele>16.960449</ele>
                <time>2006-03-26T04:04:19Z</time>
            </trkpt>
            <trkpt lon="101.345873" lat="14.193971">
                <ele>16.960449</ele>
                <time>2006-03-26T04:04:19Z</time>
            </trkpt>
            <trkpt lon="101.345723" lat="14.193885">
                <ele>16.960449</ele>
                <time>2006-03-26T04:04:23Z</time>
            </trkpt>
            <trkpt lon="101.345723" lat="14.193885">
                <ele>16.960449</ele>
                <time>2006-03-26T04:04:23Z</time>
            </trkpt>
            <trkpt lon="101.345165" lat="14.193327">
                <ele>16.960449</ele>
                <time>2006-03-26T04:04:39Z</time>
            </trkpt>
            <trkpt lon="101.345165" lat="14.193327">
                <ele>16.960449</ele>
                <time>2006-03-26T04:04:39Z</time>
            </trkpt>
            <trkpt lon="101.344779" lat="14.192898">
                <ele>16.960449</ele>
                <time>2006-03-26T04:04:50Z</time>
            </trkpt>
            <trkpt lon="101.344779" lat="14.192898">
                <ele>16.960449</ele>
                <time>2006-03-26T04:04:50Z</time>
            </trkpt>
            <trkpt lon="101.344628" lat="14.192984">
                <ele>20.324951</ele>
                <time>2006-03-26T04:05:00Z</time>
            </trkpt>
            <trkpt lon="101.344628" lat="14.192984">
                <ele>20.324951</ele>
                <time>2006-03-26T04:05:00Z</time>
            </trkpt>
            <trkpt lon="101.344650" lat="14.193134">
                <ele>19.844360</ele>
                <time>2006-03-26T04:05:19Z</time>
            </trkpt>
            <trkpt lon="101.344650" lat="14.193134">
                <ele>19.844360</ele>
                <time>2006-03-26T04:05:19Z</time>
            </trkpt>
            <trkpt lon="101.344371" lat="14.193435">
                <ele>20.324951</ele>
                <time>2006-03-26T04:05:31Z</time>
            </trkpt>
            <trkpt lon="101.344371" lat="14.193435">
                <ele>20.324951</ele>
                <time>2006-03-26T04:05:31Z</time>
            </trkpt>
            <trkpt lon="101.343319" lat="14.194336">
                <ele>19.844360</ele>
                <time>2006-03-26T04:06:04Z</time>
            </trkpt>
            <trkpt lon="101.343319" lat="14.194336">
                <ele>19.844360</ele>
                <time>2006-03-26T04:06:04Z</time>
            </trkpt>
            <trkpt lon="101.343083" lat="14.194508">
                <ele>20.324951</ele>
                <time>2006-03-26T04:06:12Z</time>
            </trkpt>
            <trkpt lon="101.343083" lat="14.194508">
                <ele>20.324951</ele>
                <time>2006-03-26T04:06:12Z</time>
            </trkpt>
            <trkpt lon="101.342955" lat="14.194980">
                <ele>20.805664</ele>
                <time>2006-03-26T04:06:25Z</time>
            </trkpt>
            <trkpt lon="101.342955" lat="14.194980">
                <ele>20.805664</ele>
                <time>2006-03-26T04:06:25Z</time>
            </trkpt>
            <trkpt lon="101.343083" lat="14.196053">
                <ele>21.286377</ele>
                <time>2006-03-26T04:06:52Z</time>
            </trkpt>
            <trkpt lon="101.343083" lat="14.196053">
                <ele>21.286377</ele>
                <time>2006-03-26T04:06:52Z</time>
            </trkpt>
            <trkpt lon="101.343255" lat="14.198198">
                <ele>20.805664</ele>
                <time>2006-03-26T04:07:34Z</time>
            </trkpt>
            <trkpt lon="101.343255" lat="14.198198">
                <ele>20.805664</ele>
                <time>2006-03-26T04:07:34Z</time>
            </trkpt>
            <trkpt lon="101.343405" lat="14.199979">
                <ele>21.286377</ele>
                <time>2006-03-26T04:08:03Z</time>
            </trkpt>
            <trkpt lon="101.343405" lat="14.199979">
                <ele>21.286377</ele>
                <time>2006-03-26T04:08:03Z</time>
            </trkpt>
            <trkpt lon="101.343341" lat="14.201224">
                <ele>22.247559</ele>
                <time>2006-03-26T04:08:26Z</time>
            </trkpt>
            <trkpt lon="101.343341" lat="14.201224">
                <ele>22.247559</ele>
                <time>2006-03-26T04:08:26Z</time>
            </trkpt>
            <trkpt lon="101.343169" lat="14.201932">
                <ele>23.689575</ele>
                <time>2006-03-26T04:08:42Z</time>
            </trkpt>
            <trkpt lon="101.343169" lat="14.201932">
                <ele>23.689575</ele>
                <time>2006-03-26T04:08:42Z</time>
            </trkpt>
            <trkpt lon="101.342976" lat="14.203176">
                <ele>25.131714</ele>
                <time>2006-03-26T04:09:12Z</time>
            </trkpt>
            <trkpt lon="101.342976" lat="14.203176">
                <ele>25.131714</ele>
                <time>2006-03-26T04:09:12Z</time>
            </trkpt>
            <trkpt lon="101.342826" lat="14.204035">
                <ele>27.054321</ele>
                <time>2006-03-26T04:09:33Z</time>
            </trkpt>
            <trkpt lon="101.342826" lat="14.204035">
                <ele>27.054321</ele>
                <time>2006-03-26T04:09:33Z</time>
            </trkpt>
            <trkpt lon="101.342762" lat="14.204443">
                <ele>28.015503</ele>
                <time>2006-03-26T04:09:45Z</time>
            </trkpt>
            <trkpt lon="101.342762" lat="14.204443">
                <ele>28.015503</ele>
                <time>2006-03-26T04:09:45Z</time>
            </trkpt>
            <trkpt lon="101.342933" lat="14.204593">
                <ele>28.015503</ele>
                <time>2006-03-26T04:09:53Z</time>
            </trkpt>
            <trkpt lon="101.342933" lat="14.204593">
                <ele>28.015503</ele>
                <time>2006-03-26T04:09:53Z</time>
            </trkpt>
            <trkpt lon="101.344028" lat="14.204872">
                <ele>27.534912</ele>
                <time>2006-03-26T04:10:16Z</time>
            </trkpt>
            <trkpt lon="101.344028" lat="14.204872">
                <ele>27.534912</ele>
                <time>2006-03-26T04:10:16Z</time>
            </trkpt>
            <trkpt lon="101.345143" lat="14.205258">
                <ele>26.092896</ele>
                <time>2006-03-26T04:10:35Z</time>
            </trkpt>
            <trkpt lon="101.345143" lat="14.205258">
                <ele>26.092896</ele>
                <time>2006-03-26T04:10:35Z</time>
            </trkpt>
            <trkpt lon="101.346388" lat="14.205687">
                <ele>24.170288</ele>
                <time>2006-03-26T04:10:56Z</time>
            </trkpt>
            <trkpt lon="101.346388" lat="14.205687">
                <ele>24.170288</ele>
                <time>2006-03-26T04:10:56Z</time>
            </trkpt>
            <trkpt lon="101.347568" lat="14.206159">
                <ele>23.689575</ele>
                <time>2006-03-26T04:11:16Z</time>
            </trkpt>
            <trkpt lon="101.347568" lat="14.206159">
                <ele>23.689575</ele>
                <time>2006-03-26T04:11:16Z</time>
            </trkpt>
            <trkpt lon="101.347954" lat="14.206567">
                <ele>23.689575</ele>
                <time>2006-03-26T04:11:26Z</time>
            </trkpt>
            <trkpt lon="101.347954" lat="14.206567">
                <ele>23.689575</ele>
                <time>2006-03-26T04:11:26Z</time>
            </trkpt>
            <trkpt lon="101.348104" lat="14.206653">
                <ele>23.689575</ele>
                <time>2006-03-26T04:11:30Z</time>
            </trkpt>
            <trkpt lon="101.348104" lat="14.206653">
                <ele>23.689575</ele>
                <time>2006-03-26T04:11:30Z</time>
            </trkpt>
            <trkpt lon="101.348984" lat="14.206803">
                <ele>22.728271</ele>
                <time>2006-03-26T04:11:46Z</time>
            </trkpt>
            <trkpt lon="101.348984" lat="14.206803">
                <ele>22.728271</ele>
                <time>2006-03-26T04:11:46Z</time>
            </trkpt>
            <trkpt lon="101.350164" lat="14.207017">
                <ele>22.728271</ele>
                <time>2006-03-26T04:12:08Z</time>
            </trkpt>
            <trkpt lon="101.350164" lat="14.207017">
                <ele>22.728271</ele>
                <time>2006-03-26T04:12:08Z</time>
            </trkpt>
            <trkpt lon="101.350744" lat="14.207146">
                <ele>24.170288</ele>
                <time>2006-03-26T04:12:23Z</time>
            </trkpt>
            <trkpt lon="101.350744" lat="14.207146">
                <ele>24.170288</ele>
                <time>2006-03-26T04:12:23Z</time>
            </trkpt>
            <trkpt lon="101.351130" lat="14.207253">
                <ele>26.092896</ele>
                <time>2006-03-26T04:12:35Z</time>
            </trkpt>
            <trkpt lon="101.351130" lat="14.207253">
                <ele>26.092896</ele>
                <time>2006-03-26T04:12:35Z</time>
            </trkpt>
            <trkpt lon="101.351151" lat="14.207811">
                <ele>26.573608</ele>
                <time>2006-03-26T04:12:51Z</time>
            </trkpt>
            <trkpt lon="101.351151" lat="14.207811">
                <ele>26.573608</ele>
                <time>2006-03-26T04:12:51Z</time>
            </trkpt>
            <trkpt lon="101.351366" lat="14.208541">
                <ele>24.170288</ele>
                <time>2006-03-26T04:13:14Z</time>
            </trkpt>
            <trkpt lon="101.351366" lat="14.208541">
                <ele>24.170288</ele>
                <time>2006-03-26T04:13:14Z</time>
            </trkpt>
            <trkpt lon="101.351538" lat="14.209292">
                <ele>26.573608</ele>
                <time>2006-03-26T04:13:32Z</time>
            </trkpt>
            <trkpt lon="101.351538" lat="14.209292">
                <ele>26.573608</ele>
                <time>2006-03-26T04:13:32Z</time>
            </trkpt>
            <trkpt lon="101.351581" lat="14.210107">
                <ele>26.092896</ele>
                <time>2006-03-26T04:13:53Z</time>
            </trkpt>
            <trkpt lon="101.351581" lat="14.210107">
                <ele>26.092896</ele>
                <time>2006-03-26T04:13:53Z</time>
            </trkpt>
            <trkpt lon="101.351109" lat="14.210193">
                <ele>27.054321</ele>
                <time>2006-03-26T04:14:06Z</time>
            </trkpt>
            <trkpt lon="101.351109" lat="14.210193">
                <ele>27.054321</ele>
                <time>2006-03-26T04:14:06Z</time>
            </trkpt>
            <trkpt lon="101.350508" lat="14.210322">
                <ele>28.015503</ele>
                <time>2006-03-26T04:14:26Z</time>
            </trkpt>
            <trkpt lon="101.350508" lat="14.210322">
                <ele>28.015503</ele>
                <time>2006-03-26T04:14:26Z</time>
            </trkpt>
            <trkpt lon="101.350036" lat="14.210365">
                <ele>29.457520</ele>
                <time>2006-03-26T04:14:42Z</time>
            </trkpt>
            <trkpt lon="101.350036" lat="14.210365">
                <ele>29.457520</ele>
                <time>2006-03-26T04:14:42Z</time>
            </trkpt>
            <trkpt lon="101.349607" lat="14.210343">
                <ele>29.457520</ele>
                <time>2006-03-26T04:14:54Z</time>
            </trkpt>
            <trkpt lon="101.349607" lat="14.210343">
                <ele>29.457520</ele>
                <time>2006-03-26T04:14:54Z</time>
            </trkpt>
            <trkpt lon="101.349328" lat="14.210279">
                <ele>31.380127</ele>
                <time>2006-03-26T04:15:07Z</time>
            </trkpt>
            <trkpt lon="101.349328" lat="14.210279">
                <ele>31.380127</ele>
                <time>2006-03-26T04:15:07Z</time>
            </trkpt>
            <trkpt lon="101.348813" lat="14.210300">
                <ele>35.706055</ele>
                <time>2006-03-26T04:15:33Z</time>
            </trkpt>
            <trkpt lon="101.348813" lat="14.210300">
                <ele>35.706055</ele>
                <time>2006-03-26T04:15:33Z</time>
            </trkpt>
            <trkpt lon="101.348641" lat="14.210150">
                <ele>38.590088</ele>
                <time>2006-03-26T04:15:46Z</time>
            </trkpt>
            <trkpt lon="101.348641" lat="14.210150">
                <ele>38.590088</ele>
                <time>2006-03-26T04:15:46Z</time>
            </trkpt>
            <trkpt lon="101.348534" lat="14.209936">
                <ele>39.551270</ele>
                <time>2006-03-26T04:15:56Z</time>
            </trkpt>
            <trkpt lon="101.348534" lat="14.209936">
                <ele>39.551270</ele>
                <time>2006-03-26T04:15:56Z</time>
            </trkpt>
            <trkpt lon="101.348469" lat="14.209979">
                <ele>40.032104</ele>
                <time>2006-03-26T04:16:02Z</time>
            </trkpt>
            <trkpt lon="101.348469" lat="14.209979">
                <ele>40.032104</ele>
                <time>2006-03-26T04:16:02Z</time>
            </trkpt>
            <trkpt lon="101.348534" lat="14.210343">
                <ele>43.877319</ele>
                <time>2006-03-26T04:16:25Z</time>
            </trkpt>
            <trkpt lon="101.348534" lat="14.210343">
                <ele>43.877319</ele>
                <time>2006-03-26T04:16:25Z</time>
            </trkpt>
            <trkpt lon="101.348662" lat="14.210837">
                <ele>47.722534</ele>
                <time>2006-03-26T04:16:52Z</time>
            </trkpt>
            <trkpt lon="101.348662" lat="14.210837">
                <ele>47.722534</ele>
                <time>2006-03-26T04:16:52Z</time>
            </trkpt>
            <trkpt lon="101.348855" lat="14.211352">
                <ele>50.606567</ele>
                <time>2006-03-26T04:17:17Z</time>
            </trkpt>
            <trkpt lon="101.348855" lat="14.211352">
                <ele>50.606567</ele>
                <time>2006-03-26T04:17:17Z</time>
            </trkpt>
            <trkpt lon="101.349070" lat="14.211953">
                <ele>53.490479</ele>
                <time>2006-03-26T04:17:41Z</time>
            </trkpt>
            <trkpt lon="101.349070" lat="14.211953">
                <ele>53.490479</ele>
                <time>2006-03-26T04:17:41Z</time>
            </trkpt>
            <trkpt lon="101.349134" lat="14.212575">
                <ele>57.335815</ele>
                <time>2006-03-26T04:18:00Z</time>
            </trkpt>
            <trkpt lon="101.349134" lat="14.212575">
                <ele>57.335815</ele>
                <time>2006-03-26T04:18:00Z</time>
            </trkpt>
            <trkpt lon="101.348963" lat="14.213498">
                <ele>59.258423</ele>
                <time>2006-03-26T04:18:25Z</time>
            </trkpt>
            <trkpt lon="101.348963" lat="14.213498">
                <ele>59.258423</ele>
                <time>2006-03-26T04:18:25Z</time>
            </trkpt>
            <trkpt lon="101.348641" lat="14.214013">
                <ele>60.700317</ele>
                <time>2006-03-26T04:18:41Z</time>
            </trkpt>
            <trkpt lon="101.348641" lat="14.214013">
                <ele>60.700317</ele>
                <time>2006-03-26T04:18:41Z</time>
            </trkpt>
            <trkpt lon="101.348190" lat="14.214549">
                <ele>60.219727</ele>
                <time>2006-03-26T04:19:00Z</time>
            </trkpt>
            <trkpt lon="101.348190" lat="14.214549">
                <ele>60.219727</ele>
                <time>2006-03-26T04:19:00Z</time>
            </trkpt>
            <trkpt lon="101.347740" lat="14.215107">
                <ele>59.739136</ele>
                <time>2006-03-26T04:19:15Z</time>
            </trkpt>
            <trkpt lon="101.347740" lat="14.215107">
                <ele>59.739136</ele>
                <time>2006-03-26T04:19:15Z</time>
            </trkpt>
            <trkpt lon="101.347117" lat="14.216416">
                <ele>57.816528</ele>
                <time>2006-03-26T04:19:40Z</time>
            </trkpt>
            <trkpt lon="101.347117" lat="14.216416">
                <ele>57.816528</ele>
                <time>2006-03-26T04:19:40Z</time>
            </trkpt>
            <trkpt lon="101.346688" lat="14.217639">
                <ele>58.297119</ele>
                <time>2006-03-26T04:20:04Z</time>
            </trkpt>
            <trkpt lon="101.346688" lat="14.217639">
                <ele>58.297119</ele>
                <time>2006-03-26T04:20:04Z</time>
            </trkpt>
            <trkpt lon="101.346688" lat="14.217768">
                <ele>58.297119</ele>
                <time>2006-03-26T04:20:07Z</time>
            </trkpt>
            <trkpt lon="101.346688" lat="14.217768">
                <ele>58.297119</ele>
                <time>2006-03-26T04:20:07Z</time>
            </trkpt>
            <trkpt lon="101.346624" lat="14.218583">
                <ele>57.816528</ele>
                <time>2006-03-26T04:20:25Z</time>
            </trkpt>
            <trkpt lon="101.346624" lat="14.218583">
                <ele>57.816528</ele>
                <time>2006-03-26T04:20:25Z</time>
            </trkpt>
            <trkpt lon="101.346688" lat="14.219742">
                <ele>59.739136</ele>
                <time>2006-03-26T04:20:50Z</time>
            </trkpt>
            <trkpt lon="101.346688" lat="14.219742">
                <ele>59.739136</ele>
                <time>2006-03-26T04:20:50Z</time>
            </trkpt>
            <trkpt lon="101.346753" lat="14.220107">
                <ele>60.219727</ele>
                <time>2006-03-26T04:20:58Z</time>
            </trkpt>
            <trkpt lon="101.346753" lat="14.220107">
                <ele>60.219727</ele>
                <time>2006-03-26T04:20:58Z</time>
            </trkpt>
            <trkpt lon="101.346323" lat="14.220836">
                <ele>59.258423</ele>
                <time>2006-03-26T04:21:14Z</time>
            </trkpt>
            <trkpt lon="101.346323" lat="14.220836">
                <ele>59.258423</ele>
                <time>2006-03-26T04:21:14Z</time>
            </trkpt>
            <trkpt lon="101.345637" lat="14.221630">
                <ele>57.335815</ele>
                <time>2006-03-26T04:21:32Z</time>
            </trkpt>
            <trkpt lon="101.345637" lat="14.221630">
                <ele>57.335815</ele>
                <time>2006-03-26T04:21:32Z</time>
            </trkpt>
            <trkpt lon="101.344843" lat="14.222338">
                <ele>57.335815</ele>
                <time>2006-03-26T04:21:49Z</time>
            </trkpt>
            <trkpt lon="101.344843" lat="14.222338">
                <ele>57.335815</ele>
                <time>2006-03-26T04:21:49Z</time>
            </trkpt>
            <trkpt lon="101.344264" lat="14.223261">
                <ele>56.855103</ele>
                <time>2006-03-26T04:22:07Z</time>
            </trkpt>
            <trkpt lon="101.344264" lat="14.223261">
                <ele>56.855103</ele>
                <time>2006-03-26T04:22:07Z</time>
            </trkpt>
            <trkpt lon="101.344199" lat="14.223368">
                <ele>56.855103</ele>
                <time>2006-03-26T04:22:09Z</time>
            </trkpt>
            <trkpt lon="101.344199" lat="14.223368">
                <ele>56.855103</ele>
                <time>2006-03-26T04:22:09Z</time>
            </trkpt>
            <trkpt lon="101.344178" lat="14.224012">
                <ele>55.413086</ele>
                <time>2006-03-26T04:22:19Z</time>
            </trkpt>
            <trkpt lon="101.344178" lat="14.224012">
                <ele>55.413086</ele>
                <time>2006-03-26T04:22:19Z</time>
            </trkpt>
            <trkpt lon="101.344457" lat="14.224935">
                <ele>53.490479</ele>
                <time>2006-03-26T04:22:33Z</time>
            </trkpt>
            <trkpt lon="101.344457" lat="14.224935">
                <ele>53.490479</ele>
                <time>2006-03-26T04:22:33Z</time>
            </trkpt>
            <trkpt lon="101.344478" lat="14.225707">
                <ele>51.567871</ele>
                <time>2006-03-26T04:22:44Z</time>
            </trkpt>
            <trkpt lon="101.344478" lat="14.225707">
                <ele>51.567871</ele>
                <time>2006-03-26T04:22:44Z</time>
            </trkpt>
            <trkpt lon="101.343920" lat="14.226716">
                <ele>48.683960</ele>
                <time>2006-03-26T04:23:04Z</time>
            </trkpt>
            <trkpt lon="101.343920" lat="14.226716">
                <ele>48.683960</ele>
                <time>2006-03-26T04:23:04Z</time>
            </trkpt>
            <trkpt lon="101.343663" lat="14.227788">
                <ele>48.203369</ele>
                <time>2006-03-26T04:23:26Z</time>
            </trkpt>
            <trkpt lon="101.343663" lat="14.227788">
                <ele>48.203369</ele>
                <time>2006-03-26T04:23:26Z</time>
            </trkpt>
            <trkpt lon="101.343577" lat="14.228067">
                <ele>48.203369</ele>
                <time>2006-03-26T04:23:32Z</time>
            </trkpt>
            <trkpt lon="101.343577" lat="14.228067">
                <ele>48.203369</ele>
                <time>2006-03-26T04:23:32Z</time>
            </trkpt>
            <trkpt lon="101.343126" lat="14.228561">
                <ele>47.722534</ele>
                <time>2006-03-26T04:23:47Z</time>
            </trkpt>
            <trkpt lon="101.343126" lat="14.228561">
                <ele>47.722534</ele>
                <time>2006-03-26T04:23:47Z</time>
            </trkpt>
            <trkpt lon="101.342590" lat="14.228690">
                <ele>47.241821</ele>
                <time>2006-03-26T04:23:59Z</time>
            </trkpt>
            <trkpt lon="101.342590" lat="14.228690">
                <ele>47.241821</ele>
                <time>2006-03-26T04:23:59Z</time>
            </trkpt>
            <trkpt lon="101.342118" lat="14.228561">
                <ele>47.241821</ele>
                <time>2006-03-26T04:24:09Z</time>
            </trkpt>
            <trkpt lon="101.342118" lat="14.228561">
                <ele>47.241821</ele>
                <time>2006-03-26T04:24:09Z</time>
            </trkpt>
            <trkpt lon="101.341817" lat="14.228561">
                <ele>47.241821</ele>
                <time>2006-03-26T04:24:15Z</time>
            </trkpt>
            <trkpt lon="101.341817" lat="14.228561">
                <ele>47.241821</ele>
                <time>2006-03-26T04:24:15Z</time>
            </trkpt>
            <trkpt lon="101.341603" lat="14.228604">
                <ele>47.722534</ele>
                <time>2006-03-26T04:24:20Z</time>
            </trkpt>
            <trkpt lon="101.341603" lat="14.228604">
                <ele>47.722534</ele>
                <time>2006-03-26T04:24:20Z</time>
            </trkpt>
            <trkpt lon="101.341388" lat="14.228883">
                <ele>48.683960</ele>
                <time>2006-03-26T04:24:28Z</time>
            </trkpt>
            <trkpt lon="101.341388" lat="14.228883">
                <ele>48.683960</ele>
                <time>2006-03-26T04:24:28Z</time>
            </trkpt>
            <trkpt lon="101.341388" lat="14.229054">
                <ele>48.683960</ele>
                <time>2006-03-26T04:24:32Z</time>
            </trkpt>
            <trkpt lon="101.341388" lat="14.229054">
                <ele>48.683960</ele>
                <time>2006-03-26T04:24:32Z</time>
            </trkpt>
            <trkpt lon="101.341774" lat="14.230084">
                <ele>49.645264</ele>
                <time>2006-03-26T04:24:56Z</time>
            </trkpt>
            <trkpt lon="101.341774" lat="14.230084">
                <ele>49.645264</ele>
                <time>2006-03-26T04:24:56Z</time>
            </trkpt>
            <trkpt lon="101.341882" lat="14.230771">
                <ele>49.645264</ele>
                <time>2006-03-26T04:25:10Z</time>
            </trkpt>
            <trkpt lon="101.341882" lat="14.230771">
                <ele>49.645264</ele>
                <time>2006-03-26T04:25:10Z</time>
            </trkpt>
            <trkpt lon="101.341689" lat="14.231286">
                <ele>48.683960</ele>
                <time>2006-03-26T04:25:20Z</time>
            </trkpt>
            <trkpt lon="101.341689" lat="14.231286">
                <ele>48.683960</ele>
                <time>2006-03-26T04:25:20Z</time>
            </trkpt>
            <trkpt lon="101.341710" lat="14.231629">
                <ele>48.683960</ele>
                <time>2006-03-26T04:25:26Z</time>
            </trkpt>
            <trkpt lon="101.341710" lat="14.231629">
                <ele>48.683960</ele>
                <time>2006-03-26T04:25:26Z</time>
            </trkpt>
            <trkpt lon="101.342139" lat="14.232616">
                <ele>47.722534</ele>
                <time>2006-03-26T04:25:46Z</time>
            </trkpt>
            <trkpt lon="101.342139" lat="14.232616">
                <ele>47.722534</ele>
                <time>2006-03-26T04:25:46Z</time>
            </trkpt>
            <trkpt lon="101.342161" lat="14.232659">
                <ele>47.722534</ele>
                <time>2006-03-26T04:25:47Z</time>
            </trkpt>
            <trkpt lon="101.342161" lat="14.232659">
                <ele>47.722534</ele>
                <time>2006-03-26T04:25:47Z</time>
            </trkpt>
            <trkpt lon="101.342225" lat="14.232724">
                <ele>47.722534</ele>
                <time>2006-03-26T04:25:49Z</time>
            </trkpt>
            <trkpt lon="101.342225" lat="14.232724">
                <ele>47.722534</ele>
                <time>2006-03-26T04:25:49Z</time>
            </trkpt>
            <trkpt lon="101.342375" lat="14.232810">
                <ele>47.722534</ele>
                <time>2006-03-26T04:25:53Z</time>
            </trkpt>
            <trkpt lon="101.342375" lat="14.232810">
                <ele>47.722534</ele>
                <time>2006-03-26T04:25:53Z</time>
            </trkpt>
            <trkpt lon="101.342525" lat="14.233003">
                <ele>47.241821</ele>
                <time>2006-03-26T04:26:06Z</time>
            </trkpt>
            <trkpt lon="101.342525" lat="14.233003">
                <ele>47.241821</ele>
                <time>2006-03-26T04:26:06Z</time>
            </trkpt>
            <trkpt lon="101.342483" lat="14.232981">
                <ele>46.280640</ele>
                <time>2006-03-26T04:26:25Z</time>
            </trkpt>
            <trkpt lon="101.342483" lat="14.232981">
                <ele>46.280640</ele>
                <time>2006-03-26T04:26:25Z</time>
            </trkpt>
            <trkpt lon="101.342590" lat="14.233024">
                <ele>71.274902</ele>
                <time>2006-03-26T04:44:55Z</time>
            </trkpt>
            <trkpt lon="101.342590" lat="14.233024">
                <ele>71.274902</ele>
                <time>2006-03-26T04:44:55Z</time>
            </trkpt>
            <trkpt lon="101.342740" lat="14.233174">
                <ele>71.274902</ele>
                <time>2006-03-26T04:45:12Z</time>
            </trkpt>
            <trkpt lon="101.342740" lat="14.233174">
                <ele>71.274902</ele>
                <time>2006-03-26T04:45:12Z</time>
            </trkpt>
            <trkpt lon="101.342676" lat="14.233625">
                <ele>73.197632</ele>
                <time>2006-03-26T04:45:32Z</time>
            </trkpt>
            <trkpt lon="101.342676" lat="14.233625">
                <ele>73.197632</ele>
                <time>2006-03-26T04:45:32Z</time>
            </trkpt>
            <trkpt lon="101.342955" lat="14.234333">
                <ele>73.197632</ele>
                <time>2006-03-26T04:45:54Z</time>
            </trkpt>
            <trkpt lon="101.342955" lat="14.234333">
                <ele>73.197632</ele>
                <time>2006-03-26T04:45:54Z</time>
            </trkpt>
            <trkpt lon="101.344049" lat="14.236114">
                <ele>73.197632</ele>
                <time>2006-03-26T04:46:50Z</time>
            </trkpt>
            <trkpt lon="101.344049" lat="14.236114">
                <ele>73.197632</ele>
                <time>2006-03-26T04:46:50Z</time>
            </trkpt>
            <trkpt lon="101.345272" lat="14.234998">
                <ele>73.197632</ele>
                <time>2006-03-26T04:47:13Z</time>
            </trkpt>
            <trkpt lon="101.345272" lat="14.234998">
                <ele>73.197632</ele>
                <time>2006-03-26T04:47:13Z</time>
            </trkpt>
            <trkpt lon="101.345336" lat="14.234934">
                <ele>73.197632</ele>
                <time>2006-03-26T04:47:15Z</time>
            </trkpt>
            <trkpt lon="101.345336" lat="14.234934">
                <ele>73.197632</ele>
                <time>2006-03-26T04:47:15Z</time>
            </trkpt>
            <trkpt lon="101.345465" lat="14.234161">
                <ele>51.087158</ele>
                <time>2006-03-26T04:47:43Z</time>
            </trkpt>
            <trkpt lon="101.345465" lat="14.234161">
                <ele>51.087158</ele>
                <time>2006-03-26T04:47:43Z</time>
            </trkpt>
            <trkpt lon="101.345894" lat="14.234076">
                <ele>44.838623</ele>
                <time>2006-03-26T04:47:54Z</time>
            </trkpt>
            <trkpt lon="101.345894" lat="14.234076">
                <ele>44.838623</ele>
                <time>2006-03-26T04:47:54Z</time>
            </trkpt>
            <trkpt lon="101.346109" lat="14.234269">
                <ele>44.838623</ele>
                <time>2006-03-26T04:48:00Z</time>
            </trkpt>
            <trkpt lon="101.346109" lat="14.234269">
                <ele>44.838623</ele>
                <time>2006-03-26T04:48:00Z</time>
            </trkpt>
            <trkpt lon="101.346774" lat="14.234912">
                <ele>44.358032</ele>
                <time>2006-03-26T04:48:25Z</time>
            </trkpt>
            <trkpt lon="101.346774" lat="14.234912">
                <ele>44.358032</ele>
                <time>2006-03-26T04:48:25Z</time>
            </trkpt>
            <trkpt lon="101.346924" lat="14.235127">
                <ele>43.396606</ele>
                <time>2006-03-26T04:48:32Z</time>
            </trkpt>
            <trkpt lon="101.346924" lat="14.235127">
                <ele>43.396606</ele>
                <time>2006-03-26T04:48:32Z</time>
            </trkpt>
            <trkpt lon="101.347461" lat="14.235127">
                <ele>43.396606</ele>
                <time>2006-03-26T04:48:46Z</time>
            </trkpt>
            <trkpt lon="101.347461" lat="14.235127">
                <ele>43.396606</ele>
                <time>2006-03-26T04:48:46Z</time>
            </trkpt>
            <trkpt lon="101.347954" lat="14.235148">
                <ele>41.954712</ele>
                <time>2006-03-26T04:48:59Z</time>
            </trkpt>
            <trkpt lon="101.347954" lat="14.235148">
                <ele>41.954712</ele>
                <time>2006-03-26T04:48:59Z</time>
            </trkpt>
            <trkpt lon="101.348019" lat="14.235191">
                <ele>42.435425</ele>
                <time>2006-03-26T04:49:01Z</time>
            </trkpt>
            <trkpt lon="101.348019" lat="14.235191">
                <ele>42.435425</ele>
                <time>2006-03-26T04:49:01Z</time>
            </trkpt>
            <trkpt lon="101.348426" lat="14.235513">
                <ele>41.954712</ele>
                <time>2006-03-26T04:49:17Z</time>
            </trkpt>
            <trkpt lon="101.348426" lat="14.235513">
                <ele>41.954712</ele>
                <time>2006-03-26T04:49:17Z</time>
            </trkpt>
            <trkpt lon="101.348662" lat="14.235663">
                <ele>40.993408</ele>
                <time>2006-03-26T04:49:25Z</time>
            </trkpt>
            <trkpt lon="101.348662" lat="14.235663">
                <ele>40.993408</ele>
                <time>2006-03-26T04:49:25Z</time>
            </trkpt>
            <trkpt lon="101.348813" lat="14.235706">
                <ele>40.512817</ele>
                <time>2006-03-26T04:49:29Z</time>
            </trkpt>
            <trkpt lon="101.348813" lat="14.235706">
                <ele>40.512817</ele>
                <time>2006-03-26T04:49:29Z</time>
            </trkpt>
            <trkpt lon="101.349370" lat="14.235535">
                <ele>41.473999</ele>
                <time>2006-03-26T04:49:43Z</time>
            </trkpt>
            <trkpt lon="101.349370" lat="14.235535">
                <ele>41.473999</ele>
                <time>2006-03-26T04:49:43Z</time>
            </trkpt>
            <trkpt lon="101.350057" lat="14.235234">
                <ele>40.993408</ele>
                <time>2006-03-26T04:50:02Z</time>
            </trkpt>
            <trkpt lon="101.350057" lat="14.235234">
                <ele>40.993408</ele>
                <time>2006-03-26T04:50:02Z</time>
            </trkpt>
            <trkpt lon="101.350400" lat="14.235084">
                <ele>40.032104</ele>
                <time>2006-03-26T04:50:11Z</time>
            </trkpt>
            <trkpt lon="101.350400" lat="14.235084">
                <ele>40.032104</ele>
                <time>2006-03-26T04:50:11Z</time>
            </trkpt>
            <trkpt lon="101.350722" lat="14.235041">
                <ele>39.070679</ele>
                <time>2006-03-26T04:50:18Z</time>
            </trkpt>
            <trkpt lon="101.350722" lat="14.235041">
                <ele>39.070679</ele>
                <time>2006-03-26T04:50:18Z</time>
            </trkpt>
            <trkpt lon="101.351645" lat="14.235020">
                <ele>39.070679</ele>
                <time>2006-03-26T04:50:42Z</time>
            </trkpt>
            <trkpt lon="101.351645" lat="14.235020">
                <ele>39.070679</ele>
                <time>2006-03-26T04:50:42Z</time>
            </trkpt>
            <trkpt lon="101.352203" lat="14.235084">
                <ele>40.512817</ele>
                <time>2006-03-26T04:50:58Z</time>
            </trkpt>
            <trkpt lon="101.352203" lat="14.235084">
                <ele>40.512817</ele>
                <time>2006-03-26T04:50:58Z</time>
            </trkpt>
            <trkpt lon="101.353061" lat="14.234869">
                <ele>40.032104</ele>
                <time>2006-03-26T04:51:19Z</time>
            </trkpt>
            <trkpt lon="101.353061" lat="14.234869">
                <ele>40.032104</ele>
                <time>2006-03-26T04:51:19Z</time>
            </trkpt>
            <trkpt lon="101.353319" lat="14.234762">
                <ele>39.551270</ele>
                <time>2006-03-26T04:51:25Z</time>
            </trkpt>
            <trkpt lon="101.353319" lat="14.234762">
                <ele>39.551270</ele>
                <time>2006-03-26T04:51:25Z</time>
            </trkpt>
            <trkpt lon="101.354113" lat="14.234633">
                <ele>41.473999</ele>
                <time>2006-03-26T04:51:43Z</time>
            </trkpt>
            <trkpt lon="101.354113" lat="14.234633">
                <ele>41.473999</ele>
                <time>2006-03-26T04:51:43Z</time>
            </trkpt>
            <trkpt lon="101.354842" lat="14.234526">
                <ele>41.954712</ele>
                <time>2006-03-26T04:51:59Z</time>
            </trkpt>
            <trkpt lon="101.354842" lat="14.234526">
                <ele>41.954712</ele>
                <time>2006-03-26T04:51:59Z</time>
            </trkpt>
            <trkpt lon="101.355379" lat="14.234440">
                <ele>39.551270</ele>
                <time>2006-03-26T04:52:14Z</time>
            </trkpt>
            <trkpt lon="101.355379" lat="14.234440">
                <ele>39.551270</ele>
                <time>2006-03-26T04:52:14Z</time>
            </trkpt>
            <trkpt lon="101.355722" lat="14.234397">
                <ele>39.070679</ele>
                <time>2006-03-26T04:52:21Z</time>
            </trkpt>
            <trkpt lon="101.355722" lat="14.234397">
                <ele>39.070679</ele>
                <time>2006-03-26T04:52:21Z</time>
            </trkpt>
            <trkpt lon="101.355915" lat="14.234891">
                <ele>38.109375</ele>
                <time>2006-03-26T04:52:35Z</time>
            </trkpt>
            <trkpt lon="101.355915" lat="14.234891">
                <ele>38.109375</ele>
                <time>2006-03-26T04:52:35Z</time>
            </trkpt>
            <trkpt lon="101.356280" lat="14.235964">
                <ele>37.148071</ele>
                <time>2006-03-26T04:53:00Z</time>
            </trkpt>
            <trkpt lon="101.356280" lat="14.235964">
                <ele>37.148071</ele>
                <time>2006-03-26T04:53:00Z</time>
            </trkpt>
            <trkpt lon="101.356516" lat="14.237187">
                <ele>37.148071</ele>
                <time>2006-03-26T04:53:28Z</time>
            </trkpt>
            <trkpt lon="101.356516" lat="14.237187">
                <ele>37.148071</ele>
                <time>2006-03-26T04:53:28Z</time>
            </trkpt>
            <trkpt lon="101.356473" lat="14.237573">
                <ele>37.148071</ele>
                <time>2006-03-26T04:53:36Z</time>
            </trkpt>
            <trkpt lon="101.356473" lat="14.237573">
                <ele>37.148071</ele>
                <time>2006-03-26T04:53:36Z</time>
            </trkpt>
            <trkpt lon="101.356258" lat="14.238753">
                <ele>36.186768</ele>
                <time>2006-03-26T04:53:59Z</time>
            </trkpt>
            <trkpt lon="101.356258" lat="14.238753">
                <ele>36.186768</ele>
                <time>2006-03-26T04:53:59Z</time>
            </trkpt>
            <trkpt lon="101.356065" lat="14.239054">
                <ele>36.667480</ele>
                <time>2006-03-26T04:54:11Z</time>
            </trkpt>
            <trkpt lon="101.356065" lat="14.239054">
                <ele>36.667480</ele>
                <time>2006-03-26T04:54:11Z</time>
            </trkpt>
            <trkpt lon="101.355937" lat="14.239290">
                <ele>40.993408</ele>
                <time>2006-03-26T04:54:29Z</time>
            </trkpt>
            <trkpt lon="101.355937" lat="14.239290">
                <ele>40.993408</ele>
                <time>2006-03-26T04:54:29Z</time>
            </trkpt>
            <trkpt lon="101.355829" lat="14.239633">
                <ele>42.435425</ele>
                <time>2006-03-26T04:54:54Z</time>
            </trkpt>
            <trkpt lon="101.355829" lat="14.239633">
                <ele>42.435425</ele>
                <time>2006-03-26T04:54:54Z</time>
            </trkpt>
            <trkpt lon="101.355700" lat="14.239912">
                <ele>45.319214</ele>
                <time>2006-03-26T04:55:11Z</time>
            </trkpt>
            <trkpt lon="101.355700" lat="14.239912">
                <ele>45.319214</ele>
                <time>2006-03-26T04:55:11Z</time>
            </trkpt>
            <trkpt lon="101.355529" lat="14.240084">
                <ele>51.087158</ele>
                <time>2006-03-26T04:55:29Z</time>
            </trkpt>
            <trkpt lon="101.355529" lat="14.240084">
                <ele>51.087158</ele>
                <time>2006-03-26T04:55:29Z</time>
            </trkpt>
            <trkpt lon="101.355271" lat="14.240234">
                <ele>57.335815</ele>
                <time>2006-03-26T04:55:50Z</time>
            </trkpt>
            <trkpt lon="101.355271" lat="14.240234">
                <ele>57.335815</ele>
                <time>2006-03-26T04:55:50Z</time>
            </trkpt>
            <trkpt lon="101.355100" lat="14.240298">
                <ele>60.700317</ele>
                <time>2006-03-26T04:56:03Z</time>
            </trkpt>
            <trkpt lon="101.355100" lat="14.240298">
                <ele>60.700317</ele>
                <time>2006-03-26T04:56:03Z</time>
            </trkpt>
            <trkpt lon="101.354864" lat="14.240384">
                <ele>66.468262</ele>
                <time>2006-03-26T04:56:22Z</time>
            </trkpt>
            <trkpt lon="101.354864" lat="14.240384">
                <ele>66.468262</ele>
                <time>2006-03-26T04:56:22Z</time>
            </trkpt>
            <trkpt lon="101.354842" lat="14.240384">
                <ele>66.948975</ele>
                <time>2006-03-26T04:56:23Z</time>
            </trkpt>
            <trkpt lon="101.354842" lat="14.240384">
                <ele>66.948975</ele>
                <time>2006-03-26T04:56:23Z</time>
            </trkpt>
            <trkpt lon="101.354649" lat="14.240406">
                <ele>69.352295</ele>
                <time>2006-03-26T04:56:37Z</time>
            </trkpt>
            <trkpt lon="101.354649" lat="14.240406">
                <ele>69.352295</ele>
                <time>2006-03-26T04:56:37Z</time>
            </trkpt>
            <trkpt lon="101.354606" lat="14.240470">
                <ele>69.352295</ele>
                <time>2006-03-26T04:56:43Z</time>
            </trkpt>
            <trkpt lon="101.354606" lat="14.240470">
                <ele>69.352295</ele>
                <time>2006-03-26T04:56:43Z</time>
            </trkpt>
            <trkpt lon="101.354413" lat="14.240663">
                <ele>69.352295</ele>
                <time>2006-03-26T04:57:05Z</time>
            </trkpt>
            <trkpt lon="101.354413" lat="14.240663">
                <ele>69.352295</ele>
                <time>2006-03-26T04:57:05Z</time>
            </trkpt>
            <trkpt lon="101.354434" lat="14.240685">
                <ele>67.429688</ele>
                <time>2006-03-26T04:57:26Z</time>
            </trkpt>
            <trkpt lon="101.354434" lat="14.240685">
                <ele>67.429688</ele>
                <time>2006-03-26T04:57:26Z</time>
            </trkpt>
            <trkpt lon="101.354456" lat="14.240685">
                <ele>72.236206</ele>
                <time>2006-03-26T04:57:40Z</time>
            </trkpt>
            <trkpt lon="101.354456" lat="14.240685">
                <ele>72.236206</ele>
                <time>2006-03-26T04:57:40Z</time>
            </trkpt>
            <trkpt lon="101.354778" lat="14.240792">
                <ele>71.274902</ele>
                <time>2006-03-26T04:57:56Z</time>
            </trkpt>
            <trkpt lon="101.354778" lat="14.240792">
                <ele>71.274902</ele>
                <time>2006-03-26T04:57:56Z</time>
            </trkpt>
            <trkpt lon="101.355121" lat="14.240942">
                <ele>73.197632</ele>
                <time>2006-03-26T04:58:12Z</time>
            </trkpt>
            <trkpt lon="101.355121" lat="14.240942">
                <ele>73.197632</ele>
                <time>2006-03-26T04:58:12Z</time>
            </trkpt>
            <trkpt lon="101.355336" lat="14.241028">
                <ele>73.678223</ele>
                <time>2006-03-26T04:58:25Z</time>
            </trkpt>
            <trkpt lon="101.355336" lat="14.241028">
                <ele>73.678223</ele>
                <time>2006-03-26T04:58:25Z</time>
            </trkpt>
            <trkpt lon="101.355700" lat="14.241157">
                <ele>75.120239</ele>
                <time>2006-03-26T04:58:40Z</time>
            </trkpt>
            <trkpt lon="101.355700" lat="14.241157">
                <ele>75.120239</ele>
                <time>2006-03-26T04:58:40Z</time>
            </trkpt>
            <trkpt lon="101.356130" lat="14.241307">
                <ele>75.600830</ele>
                <time>2006-03-26T04:58:53Z</time>
            </trkpt>
            <trkpt lon="101.356130" lat="14.241307">
                <ele>75.600830</ele>
                <time>2006-03-26T04:58:53Z</time>
            </trkpt>
            <trkpt lon="101.356602" lat="14.241500">
                <ele>76.081421</ele>
                <time>2006-03-26T04:59:08Z</time>
            </trkpt>
            <trkpt lon="101.356602" lat="14.241500">
                <ele>76.081421</ele>
                <time>2006-03-26T04:59:08Z</time>
            </trkpt>
            <trkpt lon="101.357052" lat="14.241672">
                <ele>76.562134</ele>
                <time>2006-03-26T04:59:23Z</time>
            </trkpt>
            <trkpt lon="101.357052" lat="14.241672">
                <ele>76.562134</ele>
                <time>2006-03-26T04:59:23Z</time>
            </trkpt>
            <trkpt lon="101.357503" lat="14.241843">
                <ele>76.562134</ele>
                <time>2006-03-26T04:59:42Z</time>
            </trkpt>
            <trkpt lon="101.357503" lat="14.241843">
                <ele>76.562134</ele>
                <time>2006-03-26T04:59:42Z</time>
            </trkpt>
            <trkpt lon="101.357567" lat="14.241886">
                <ele>76.562134</ele>
                <time>2006-03-26T04:59:47Z</time>
            </trkpt>
            <trkpt lon="101.357567" lat="14.241886">
                <ele>76.562134</ele>
                <time>2006-03-26T04:59:47Z</time>
            </trkpt>
            <trkpt lon="101.357610" lat="14.241865">
                <ele>78.004028</ele>
                <time>2006-03-26T05:00:03Z</time>
            </trkpt>
            <trkpt lon="101.357610" lat="14.241865">
                <ele>78.004028</ele>
                <time>2006-03-26T05:00:03Z</time>
            </trkpt>
            <trkpt lon="101.357589" lat="14.241843">
                <ele>77.042847</ele>
                <time>2006-03-26T05:00:14Z</time>
            </trkpt>
            <trkpt lon="101.357589" lat="14.241843">
                <ele>77.042847</ele>
                <time>2006-03-26T05:00:14Z</time>
            </trkpt>
            <trkpt lon="101.357353" lat="14.241779">
                <ele>75.120239</ele>
                <time>2006-03-26T05:00:29Z</time>
            </trkpt>
            <trkpt lon="101.357353" lat="14.241779">
                <ele>75.120239</ele>
                <time>2006-03-26T05:00:29Z</time>
            </trkpt>
            <trkpt lon="101.356902" lat="14.241607">
                <ele>75.600830</ele>
                <time>2006-03-26T05:00:48Z</time>
            </trkpt>
            <trkpt lon="101.356902" lat="14.241607">
                <ele>75.600830</ele>
                <time>2006-03-26T05:00:48Z</time>
            </trkpt>
            <trkpt lon="101.356537" lat="14.241478">
                <ele>74.158813</ele>
                <time>2006-03-26T05:01:02Z</time>
            </trkpt>
            <trkpt lon="101.356537" lat="14.241478">
                <ele>74.158813</ele>
                <time>2006-03-26T05:01:02Z</time>
            </trkpt>
            <trkpt lon="101.356065" lat="14.241285">
                <ele>74.639526</ele>
                <time>2006-03-26T05:01:17Z</time>
            </trkpt>
            <trkpt lon="101.356065" lat="14.241285">
                <ele>74.639526</ele>
                <time>2006-03-26T05:01:17Z</time>
            </trkpt>
            <trkpt lon="101.355336" lat="14.241006">
                <ele>74.639526</ele>
                <time>2006-03-26T05:01:36Z</time>
            </trkpt>
            <trkpt lon="101.355336" lat="14.241006">
                <ele>74.639526</ele>
                <time>2006-03-26T05:01:36Z</time>
            </trkpt>
            <trkpt lon="101.354799" lat="14.240792">
                <ele>76.562134</ele>
                <time>2006-03-26T05:01:52Z</time>
            </trkpt>
            <trkpt lon="101.354799" lat="14.240792">
                <ele>76.562134</ele>
                <time>2006-03-26T05:01:52Z</time>
            </trkpt>
            <trkpt lon="101.354456" lat="14.240642">
                <ele>74.639526</ele>
                <time>2006-03-26T05:02:03Z</time>
            </trkpt>
            <trkpt lon="101.354456" lat="14.240642">
                <ele>74.639526</ele>
                <time>2006-03-26T05:02:03Z</time>
            </trkpt>
            <trkpt lon="101.354499" lat="14.240491">
                <ele>74.639526</ele>
                <time>2006-03-26T05:02:08Z</time>
            </trkpt>
            <trkpt lon="101.354499" lat="14.240491">
                <ele>74.639526</ele>
                <time>2006-03-26T05:02:08Z</time>
            </trkpt>
            <trkpt lon="101.354713" lat="14.240406">
                <ele>75.120239</ele>
                <time>2006-03-26T05:02:12Z</time>
            </trkpt>
            <trkpt lon="101.354713" lat="14.240406">
                <ele>75.120239</ele>
                <time>2006-03-26T05:02:12Z</time>
            </trkpt>
            <trkpt lon="101.355550" lat="14.240084">
                <ele>70.794189</ele>
                <time>2006-03-26T05:02:23Z</time>
            </trkpt>
            <trkpt lon="101.355550" lat="14.240084">
                <ele>70.794189</ele>
                <time>2006-03-26T05:02:23Z</time>
            </trkpt>
            <trkpt lon="101.355872" lat="14.239633">
                <ele>66.468262</ele>
                <time>2006-03-26T05:02:29Z</time>
            </trkpt>
            <trkpt lon="101.355872" lat="14.239633">
                <ele>66.468262</ele>
                <time>2006-03-26T05:02:29Z</time>
            </trkpt>
            <trkpt lon="101.355958" lat="14.239268">
                <ele>63.103638</ele>
                <time>2006-03-26T05:02:34Z</time>
            </trkpt>
            <trkpt lon="101.355958" lat="14.239268">
                <ele>63.103638</ele>
                <time>2006-03-26T05:02:34Z</time>
            </trkpt>
            <trkpt lon="101.356065" lat="14.239054">
                <ele>62.622925</ele>
                <time>2006-03-26T05:02:38Z</time>
            </trkpt>
            <trkpt lon="101.356065" lat="14.239054">
                <ele>62.622925</ele>
                <time>2006-03-26T05:02:38Z</time>
            </trkpt>
            <trkpt lon="101.356280" lat="14.238839">
                <ele>62.142334</ele>
                <time>2006-03-26T05:02:44Z</time>
            </trkpt>
            <trkpt lon="101.356280" lat="14.238839">
                <ele>62.142334</ele>
                <time>2006-03-26T05:02:44Z</time>
            </trkpt>
            <trkpt lon="101.356366" lat="14.238603">
                <ele>57.335815</ele>
                <time>2006-03-26T05:02:50Z</time>
            </trkpt>
            <trkpt lon="101.356366" lat="14.238603">
                <ele>57.335815</ele>
                <time>2006-03-26T05:02:50Z</time>
            </trkpt>
            <trkpt lon="101.356430" lat="14.238153">
                <ele>50.125977</ele>
                <time>2006-03-26T05:03:08Z</time>
            </trkpt>
            <trkpt lon="101.356430" lat="14.238153">
                <ele>50.125977</ele>
                <time>2006-03-26T05:03:08Z</time>
            </trkpt>
            <trkpt lon="101.356494" lat="14.237509">
                <ele>47.241821</ele>
                <time>2006-03-26T05:03:25Z</time>
            </trkpt>
            <trkpt lon="101.356494" lat="14.237509">
                <ele>47.241821</ele>
                <time>2006-03-26T05:03:25Z</time>
            </trkpt>
            <trkpt lon="101.356537" lat="14.236929">
                <ele>45.319214</ele>
                <time>2006-03-26T05:03:41Z</time>
            </trkpt>
            <trkpt lon="101.356537" lat="14.236929">
                <ele>45.319214</ele>
                <time>2006-03-26T05:03:41Z</time>
            </trkpt>
            <trkpt lon="101.356409" lat="14.236350">
                <ele>42.435425</ele>
                <time>2006-03-26T05:03:55Z</time>
            </trkpt>
            <trkpt lon="101.356409" lat="14.236350">
                <ele>42.435425</ele>
                <time>2006-03-26T05:03:55Z</time>
            </trkpt>
            <trkpt lon="101.356301" lat="14.235985">
                <ele>39.551270</ele>
                <time>2006-03-26T05:04:04Z</time>
            </trkpt>
            <trkpt lon="101.356301" lat="14.235985">
                <ele>39.551270</ele>
                <time>2006-03-26T05:04:04Z</time>
            </trkpt>
            <trkpt lon="101.356280" lat="14.235878">
                <ele>38.590088</ele>
                <time>2006-03-26T05:04:09Z</time>
            </trkpt>
            <trkpt lon="101.356280" lat="14.235878">
                <ele>38.590088</ele>
                <time>2006-03-26T05:04:09Z</time>
            </trkpt>
            <trkpt lon="101.356258" lat="14.235814">
                <ele>37.148071</ele>
                <time>2006-03-26T05:04:13Z</time>
            </trkpt>
            <trkpt lon="101.356258" lat="14.235814">
                <ele>37.148071</ele>
                <time>2006-03-26T05:04:13Z</time>
            </trkpt>
            <trkpt lon="101.356237" lat="14.235814">
                <ele>38.590088</ele>
                <time>2006-03-26T05:04:17Z</time>
            </trkpt>
            <trkpt lon="101.356237" lat="14.235814">
                <ele>38.590088</ele>
                <time>2006-03-26T05:04:17Z</time>
            </trkpt>
            <trkpt lon="101.356194" lat="14.235599">
                <ele>37.628662</ele>
                <time>2006-03-26T05:04:24Z</time>
            </trkpt>
            <trkpt lon="101.356194" lat="14.235599">
                <ele>37.628662</ele>
                <time>2006-03-26T05:04:24Z</time>
            </trkpt>
            <trkpt lon="101.355894" lat="14.234891">
                <ele>30.899536</ele>
                <time>2006-03-26T05:04:39Z</time>
            </trkpt>
            <trkpt lon="101.355894" lat="14.234891">
                <ele>30.899536</ele>
                <time>2006-03-26T05:04:39Z</time>
            </trkpt>
            <trkpt lon="101.355765" lat="14.234612">
                <ele>29.457520</ele>
                <time>2006-03-26T05:04:45Z</time>
            </trkpt>
            <trkpt lon="101.355765" lat="14.234612">
                <ele>29.457520</ele>
                <time>2006-03-26T05:04:45Z</time>
            </trkpt>
            <trkpt lon="101.355765" lat="14.234397">
                <ele>30.418823</ele>
                <time>2006-03-26T05:04:50Z</time>
            </trkpt>
            <trkpt lon="101.355765" lat="14.234397">
                <ele>30.418823</ele>
                <time>2006-03-26T05:04:50Z</time>
            </trkpt>
            <trkpt lon="101.355958" lat="14.234247">
                <ele>30.418823</ele>
                <time>2006-03-26T05:04:55Z</time>
            </trkpt>
            <trkpt lon="101.355958" lat="14.234247">
                <ele>30.418823</ele>
                <time>2006-03-26T05:04:55Z</time>
            </trkpt>
            <trkpt lon="101.356387" lat="14.234076">
                <ele>31.860718</ele>
                <time>2006-03-26T05:05:04Z</time>
            </trkpt>
            <trkpt lon="101.356387" lat="14.234076">
                <ele>31.860718</ele>
                <time>2006-03-26T05:05:04Z</time>
            </trkpt>
            <trkpt lon="101.356537" lat="14.234033">
                <ele>31.860718</ele>
                <time>2006-03-26T05:05:07Z</time>
            </trkpt>
            <trkpt lon="101.356537" lat="14.234033">
                <ele>31.860718</ele>
                <time>2006-03-26T05:05:07Z</time>
            </trkpt>
            <trkpt lon="101.357052" lat="14.234183">
                <ele>30.899536</ele>
                <time>2006-03-26T05:05:20Z</time>
            </trkpt>
            <trkpt lon="101.357052" lat="14.234183">
                <ele>30.899536</ele>
                <time>2006-03-26T05:05:20Z</time>
            </trkpt>
            <trkpt lon="101.357460" lat="14.234419">
                <ele>29.938110</ele>
                <time>2006-03-26T05:05:32Z</time>
            </trkpt>
            <trkpt lon="101.357460" lat="14.234419">
                <ele>29.938110</ele>
                <time>2006-03-26T05:05:32Z</time>
            </trkpt>
            <trkpt lon="101.357996" lat="14.234762">
                <ele>31.380127</ele>
                <time>2006-03-26T05:05:48Z</time>
            </trkpt>
            <trkpt lon="101.357996" lat="14.234762">
                <ele>31.380127</ele>
                <time>2006-03-26T05:05:48Z</time>
            </trkpt>
            <trkpt lon="101.358554" lat="14.235127">
                <ele>32.822266</ele>
                <time>2006-03-26T05:06:04Z</time>
            </trkpt>
            <trkpt lon="101.358554" lat="14.235127">
                <ele>32.822266</ele>
                <time>2006-03-26T05:06:04Z</time>
            </trkpt>
            <trkpt lon="101.359220" lat="14.235599">
                <ele>34.264160</ele>
                <time>2006-03-26T05:06:24Z</time>
            </trkpt>
            <trkpt lon="101.359220" lat="14.235599">
                <ele>34.264160</ele>
                <time>2006-03-26T05:06:24Z</time>
            </trkpt>
            <trkpt lon="101.359284" lat="14.235642">
                <ele>33.783447</ele>
                <time>2006-03-26T05:06:26Z</time>
            </trkpt>
            <trkpt lon="101.359284" lat="14.235642">
                <ele>33.783447</ele>
                <time>2006-03-26T05:06:26Z</time>
            </trkpt>
            <trkpt lon="101.359541" lat="14.235513">
                <ele>34.264160</ele>
                <time>2006-03-26T05:06:32Z</time>
            </trkpt>
            <trkpt lon="101.359541" lat="14.235513">
                <ele>34.264160</ele>
                <time>2006-03-26T05:06:32Z</time>
            </trkpt>
            <trkpt lon="101.360142" lat="14.234827">
                <ele>35.225464</ele>
                <time>2006-03-26T05:06:50Z</time>
            </trkpt>
            <trkpt lon="101.360142" lat="14.234827">
                <ele>35.225464</ele>
                <time>2006-03-26T05:06:50Z</time>
            </trkpt>
            <trkpt lon="101.360936" lat="14.234183">
                <ele>36.667480</ele>
                <time>2006-03-26T05:07:10Z</time>
            </trkpt>
            <trkpt lon="101.360936" lat="14.234183">
                <ele>36.667480</ele>
                <time>2006-03-26T05:07:10Z</time>
            </trkpt>
            <trkpt lon="101.361644" lat="14.233518">
                <ele>37.148071</ele>
                <time>2006-03-26T05:07:30Z</time>
            </trkpt>
            <trkpt lon="101.361644" lat="14.233518">
                <ele>37.148071</ele>
                <time>2006-03-26T05:07:30Z</time>
            </trkpt>
            <trkpt lon="101.362073" lat="14.232831">
                <ele>34.264160</ele>
                <time>2006-03-26T05:07:48Z</time>
            </trkpt>
            <trkpt lon="101.362073" lat="14.232831">
                <ele>34.264160</ele>
                <time>2006-03-26T05:07:48Z</time>
            </trkpt>
            <trkpt lon="101.362374" lat="14.232466">
                <ele>34.264160</ele>
                <time>2006-03-26T05:08:01Z</time>
            </trkpt>
            <trkpt lon="101.362374" lat="14.232466">
                <ele>34.264160</ele>
                <time>2006-03-26T05:08:01Z</time>
            </trkpt>
            <trkpt lon="101.362524" lat="14.232101">
                <ele>33.783447</ele>
                <time>2006-03-26T05:08:10Z</time>
            </trkpt>
            <trkpt lon="101.362524" lat="14.232101">
                <ele>33.783447</ele>
                <time>2006-03-26T05:08:10Z</time>
            </trkpt>
            <trkpt lon="101.362674" lat="14.231951">
                <ele>35.225464</ele>
                <time>2006-03-26T05:08:15Z</time>
            </trkpt>
            <trkpt lon="101.362674" lat="14.231951">
                <ele>35.225464</ele>
                <time>2006-03-26T05:08:15Z</time>
            </trkpt>
            <trkpt lon="101.363640" lat="14.231822">
                <ele>39.070679</ele>
                <time>2006-03-26T05:08:37Z</time>
            </trkpt>
            <trkpt lon="101.363640" lat="14.231822">
                <ele>39.070679</ele>
                <time>2006-03-26T05:08:37Z</time>
            </trkpt>
            <trkpt lon="101.364026" lat="14.231629">
                <ele>39.070679</ele>
                <time>2006-03-26T05:08:47Z</time>
            </trkpt>
            <trkpt lon="101.364026" lat="14.231629">
                <ele>39.070679</ele>
                <time>2006-03-26T05:08:47Z</time>
            </trkpt>
            <trkpt lon="101.364498" lat="14.231243">
                <ele>38.590088</ele>
                <time>2006-03-26T05:08:59Z</time>
            </trkpt>
            <trkpt lon="101.364498" lat="14.231243">
                <ele>38.590088</ele>
                <time>2006-03-26T05:08:59Z</time>
            </trkpt>
            <trkpt lon="101.365314" lat="14.230814">
                <ele>41.473999</ele>
                <time>2006-03-26T05:09:17Z</time>
            </trkpt>
            <trkpt lon="101.365314" lat="14.230814">
                <ele>41.473999</ele>
                <time>2006-03-26T05:09:17Z</time>
            </trkpt>
            <trkpt lon="101.366279" lat="14.230406">
                <ele>41.473999</ele>
                <time>2006-03-26T05:09:38Z</time>
            </trkpt>
            <trkpt lon="101.366279" lat="14.230406">
                <ele>41.473999</ele>
                <time>2006-03-26T05:09:38Z</time>
            </trkpt>
            <trkpt lon="101.367030" lat="14.230042">
                <ele>41.954712</ele>
                <time>2006-03-26T05:09:54Z</time>
            </trkpt>
            <trkpt lon="101.367030" lat="14.230042">
                <ele>41.954712</ele>
                <time>2006-03-26T05:09:54Z</time>
            </trkpt>
            <trkpt lon="101.367073" lat="14.229805">
                <ele>41.473999</ele>
                <time>2006-03-26T05:09:59Z</time>
            </trkpt>
            <trkpt lon="101.367073" lat="14.229805">
                <ele>41.473999</ele>
                <time>2006-03-26T05:09:59Z</time>
            </trkpt>
            <trkpt lon="101.367073" lat="14.229527">
                <ele>40.512817</ele>
                <time>2006-03-26T05:10:05Z</time>
            </trkpt>
            <trkpt lon="101.367073" lat="14.229527">
                <ele>40.512817</ele>
                <time>2006-03-26T05:10:05Z</time>
            </trkpt>
            <trkpt lon="101.367331" lat="14.228861">
                <ele>39.551270</ele>
                <time>2006-03-26T05:10:20Z</time>
            </trkpt>
            <trkpt lon="101.367331" lat="14.228861">
                <ele>39.551270</ele>
                <time>2006-03-26T05:10:20Z</time>
            </trkpt>
            <trkpt lon="101.367996" lat="14.227917">
                <ele>38.590088</ele>
                <time>2006-03-26T05:10:42Z</time>
            </trkpt>
            <trkpt lon="101.367996" lat="14.227917">
                <ele>38.590088</ele>
                <time>2006-03-26T05:10:42Z</time>
            </trkpt>
            <trkpt lon="101.368210" lat="14.227810">
                <ele>39.551270</ele>
                <time>2006-03-26T05:10:46Z</time>
            </trkpt>
            <trkpt lon="101.368210" lat="14.227810">
                <ele>39.551270</ele>
                <time>2006-03-26T05:10:46Z</time>
            </trkpt>
            <trkpt lon="101.369026" lat="14.227831">
                <ele>38.109375</ele>
                <time>2006-03-26T05:11:01Z</time>
            </trkpt>
            <trkpt lon="101.369026" lat="14.227831">
                <ele>38.109375</ele>
                <time>2006-03-26T05:11:01Z</time>
            </trkpt>
            <trkpt lon="101.369798" lat="14.228089">
                <ele>38.109375</ele>
                <time>2006-03-26T05:11:19Z</time>
            </trkpt>
            <trkpt lon="101.369798" lat="14.228089">
                <ele>38.109375</ele>
                <time>2006-03-26T05:11:19Z</time>
            </trkpt>
            <trkpt lon="101.370742" lat="14.228539">
                <ele>39.551270</ele>
                <time>2006-03-26T05:11:46Z</time>
            </trkpt>
            <trkpt lon="101.370742" lat="14.228539">
                <ele>39.551270</ele>
                <time>2006-03-26T05:11:46Z</time>
            </trkpt>
            <trkpt lon="101.371837" lat="14.228711">
                <ele>44.358032</ele>
                <time>2006-03-26T05:12:10Z</time>
            </trkpt>
            <trkpt lon="101.371837" lat="14.228711">
                <ele>44.358032</ele>
                <time>2006-03-26T05:12:10Z</time>
            </trkpt>
            <trkpt lon="101.372395" lat="14.228711">
                <ele>43.877319</ele>
                <time>2006-03-26T05:12:26Z</time>
            </trkpt>
            <trkpt lon="101.372395" lat="14.228711">
                <ele>43.877319</ele>
                <time>2006-03-26T05:12:26Z</time>
            </trkpt>
            <trkpt lon="101.373017" lat="14.228625">
                <ele>46.280640</ele>
                <time>2006-03-26T05:12:53Z</time>
            </trkpt>
            <trkpt lon="101.373017" lat="14.228625">
                <ele>46.280640</ele>
                <time>2006-03-26T05:12:53Z</time>
            </trkpt>
            <trkpt lon="101.373811" lat="14.228389">
                <ele>45.799927</ele>
                <time>2006-03-26T05:13:15Z</time>
            </trkpt>
            <trkpt lon="101.373811" lat="14.228389">
                <ele>45.799927</ele>
                <time>2006-03-26T05:13:15Z</time>
            </trkpt>
            <trkpt lon="101.374605" lat="14.228175">
                <ele>44.838623</ele>
                <time>2006-03-26T05:13:27Z</time>
            </trkpt>
            <trkpt lon="101.374605" lat="14.228175">
                <ele>44.838623</ele>
                <time>2006-03-26T05:13:27Z</time>
            </trkpt>
            <trkpt lon="101.375206" lat="14.228303">
                <ele>46.280640</ele>
                <time>2006-03-26T05:13:38Z</time>
            </trkpt>
            <trkpt lon="101.375206" lat="14.228303">
                <ele>46.280640</ele>
                <time>2006-03-26T05:13:38Z</time>
            </trkpt>
            <trkpt lon="101.376214" lat="14.228711">
                <ele>43.396606</ele>
                <time>2006-03-26T05:13:54Z</time>
            </trkpt>
            <trkpt lon="101.376214" lat="14.228711">
                <ele>43.396606</ele>
                <time>2006-03-26T05:13:54Z</time>
            </trkpt>
            <trkpt lon="101.377394" lat="14.229333">
                <ele>40.032104</ele>
                <time>2006-03-26T05:14:13Z</time>
            </trkpt>
            <trkpt lon="101.377394" lat="14.229333">
                <ele>40.032104</ele>
                <time>2006-03-26T05:14:13Z</time>
            </trkpt>
            <trkpt lon="101.377501" lat="14.229398">
                <ele>39.551270</ele>
                <time>2006-03-26T05:14:15Z</time>
            </trkpt>
            <trkpt lon="101.377501" lat="14.229398">
                <ele>39.551270</ele>
                <time>2006-03-26T05:14:15Z</time>
            </trkpt>
            <trkpt lon="101.378145" lat="14.229569">
                <ele>37.628662</ele>
                <time>2006-03-26T05:14:27Z</time>
            </trkpt>
            <trkpt lon="101.378145" lat="14.229569">
                <ele>37.628662</ele>
                <time>2006-03-26T05:14:27Z</time>
            </trkpt>
            <trkpt lon="101.378424" lat="14.229548">
                <ele>37.628662</ele>
                <time>2006-03-26T05:14:32Z</time>
            </trkpt>
            <trkpt lon="101.378424" lat="14.229548">
                <ele>37.628662</ele>
                <time>2006-03-26T05:14:32Z</time>
            </trkpt>
            <trkpt lon="101.378853" lat="14.229269">
                <ele>38.109375</ele>
                <time>2006-03-26T05:14:41Z</time>
            </trkpt>
            <trkpt lon="101.378853" lat="14.229269">
                <ele>38.109375</ele>
                <time>2006-03-26T05:14:41Z</time>
            </trkpt>
            <trkpt lon="101.379261" lat="14.229033">
                <ele>37.628662</ele>
                <time>2006-03-26T05:14:49Z</time>
            </trkpt>
            <trkpt lon="101.379261" lat="14.229033">
                <ele>37.628662</ele>
                <time>2006-03-26T05:14:49Z</time>
            </trkpt>
            <trkpt lon="101.379626" lat="14.228969">
                <ele>38.109375</ele>
                <time>2006-03-26T05:14:56Z</time>
            </trkpt>
            <trkpt lon="101.379626" lat="14.228969">
                <ele>38.109375</ele>
                <time>2006-03-26T05:14:56Z</time>
            </trkpt>
            <trkpt lon="101.380227" lat="14.229312">
                <ele>37.628662</ele>
                <time>2006-03-26T05:15:10Z</time>
            </trkpt>
            <trkpt lon="101.380227" lat="14.229312">
                <ele>37.628662</ele>
                <time>2006-03-26T05:15:10Z</time>
            </trkpt>
            <trkpt lon="101.381042" lat="14.229934">
                <ele>37.148071</ele>
                <time>2006-03-26T05:15:32Z</time>
            </trkpt>
            <trkpt lon="101.381042" lat="14.229934">
                <ele>37.148071</ele>
                <time>2006-03-26T05:15:32Z</time>
            </trkpt>
            <trkpt lon="101.381879" lat="14.231007">
                <ele>37.628662</ele>
                <time>2006-03-26T05:15:59Z</time>
            </trkpt>
            <trkpt lon="101.381879" lat="14.231007">
                <ele>37.628662</ele>
                <time>2006-03-26T05:15:59Z</time>
            </trkpt>
            <trkpt lon="101.381772" lat="14.231093">
                <ele>35.706055</ele>
                <time>2006-03-26T05:16:11Z</time>
            </trkpt>
            <trkpt lon="101.381772" lat="14.231093">
                <ele>35.706055</ele>
                <time>2006-03-26T05:16:11Z</time>
            </trkpt>
            <trkpt lon="101.381772" lat="14.231114">
                <ele>34.744873</ele>
                <time>2006-03-26T05:16:19Z</time>
            </trkpt>
            <trkpt lon="101.381772" lat="14.231114">
                <ele>34.744873</ele>
                <time>2006-03-26T05:16:19Z</time>
            </trkpt>
            <trkpt lon="101.381750" lat="14.231071">
                <ele>34.264160</ele>
                <time>2006-03-26T05:16:30Z</time>
            </trkpt>
            <trkpt lon="101.381750" lat="14.231071">
                <ele>34.264160</ele>
                <time>2006-03-26T05:16:30Z</time>
            </trkpt>
            <trkpt lon="101.381686" lat="14.230814">
                <ele>31.380127</ele>
                <time>2006-03-26T05:18:48Z</time>
            </trkpt>
            <trkpt lon="101.381686" lat="14.230814">
                <ele>31.380127</ele>
                <time>2006-03-26T05:18:48Z</time>
            </trkpt>
            <trkpt lon="101.381857" lat="14.230042">
                <ele>30.418823</ele>
                <time>2006-03-26T05:19:08Z</time>
            </trkpt>
            <trkpt lon="101.381857" lat="14.230042">
                <ele>30.418823</ele>
                <time>2006-03-26T05:19:08Z</time>
            </trkpt>
            <trkpt lon="101.382179" lat="14.228904">
                <ele>29.938110</ele>
                <time>2006-03-26T05:19:32Z</time>
            </trkpt>
            <trkpt lon="101.382179" lat="14.228904">
                <ele>29.938110</ele>
                <time>2006-03-26T05:19:32Z</time>
            </trkpt>
            <trkpt lon="101.382608" lat="14.227896">
                <ele>29.457520</ele>
                <time>2006-03-26T05:19:54Z</time>
            </trkpt>
            <trkpt lon="101.382608" lat="14.227896">
                <ele>29.457520</ele>
                <time>2006-03-26T05:19:54Z</time>
            </trkpt>
            <trkpt lon="101.382651" lat="14.227810">
                <ele>28.976929</ele>
                <time>2006-03-26T05:19:56Z</time>
            </trkpt>
            <trkpt lon="101.382651" lat="14.227810">
                <ele>28.976929</ele>
                <time>2006-03-26T05:19:56Z</time>
            </trkpt>
            <trkpt lon="101.383295" lat="14.226630">
                <ele>26.092896</ele>
                <time>2006-03-26T05:20:22Z</time>
            </trkpt>
            <trkpt lon="101.383295" lat="14.226630">
                <ele>26.092896</ele>
                <time>2006-03-26T05:20:22Z</time>
            </trkpt>
            <trkpt lon="101.383553" lat="14.226136">
                <ele>27.054321</ele>
                <time>2006-03-26T05:20:33Z</time>
            </trkpt>
            <trkpt lon="101.383553" lat="14.226136">
                <ele>27.054321</ele>
                <time>2006-03-26T05:20:33Z</time>
            </trkpt>
            <trkpt lon="101.383703" lat="14.226072">
                <ele>28.015503</ele>
                <time>2006-03-26T05:20:37Z</time>
            </trkpt>
            <trkpt lon="101.383703" lat="14.226072">
                <ele>28.015503</ele>
                <time>2006-03-26T05:20:37Z</time>
            </trkpt>
            <trkpt lon="101.384046" lat="14.226179">
                <ele>28.976929</ele>
                <time>2006-03-26T05:20:44Z</time>
            </trkpt>
            <trkpt lon="101.384046" lat="14.226179">
                <ele>28.976929</ele>
                <time>2006-03-26T05:20:44Z</time>
            </trkpt>
            <trkpt lon="101.384153" lat="14.226136">
                <ele>28.976929</ele>
                <time>2006-03-26T05:20:47Z</time>
            </trkpt>
            <trkpt lon="101.384153" lat="14.226136">
                <ele>28.976929</ele>
                <time>2006-03-26T05:20:47Z</time>
            </trkpt>
            <trkpt lon="101.384797" lat="14.225535">
                <ele>28.015503</ele>
                <time>2006-03-26T05:21:06Z</time>
            </trkpt>
            <trkpt lon="101.384797" lat="14.225535">
                <ele>28.015503</ele>
                <time>2006-03-26T05:21:06Z</time>
            </trkpt>
            <trkpt lon="101.385055" lat="14.225342">
                <ele>28.496216</ele>
                <time>2006-03-26T05:21:13Z</time>
            </trkpt>
            <trkpt lon="101.385055" lat="14.225342">
                <ele>28.496216</ele>
                <time>2006-03-26T05:21:13Z</time>
            </trkpt>
            <trkpt lon="101.385741" lat="14.225085">
                <ele>28.496216</ele>
                <time>2006-03-26T05:21:33Z</time>
            </trkpt>
            <trkpt lon="101.385741" lat="14.225085">
                <ele>28.496216</ele>
                <time>2006-03-26T05:21:33Z</time>
            </trkpt>
            <trkpt lon="101.386127" lat="14.225192">
                <ele>28.015503</ele>
                <time>2006-03-26T05:21:43Z</time>
            </trkpt>
            <trkpt lon="101.386127" lat="14.225192">
                <ele>28.015503</ele>
                <time>2006-03-26T05:21:43Z</time>
            </trkpt>
            <trkpt lon="101.386170" lat="14.225020">
                <ele>27.054321</ele>
                <time>2006-03-26T05:21:49Z</time>
            </trkpt>
            <trkpt lon="101.386170" lat="14.225020">
                <ele>27.054321</ele>
                <time>2006-03-26T05:21:49Z</time>
            </trkpt>
            <trkpt lon="101.386063" lat="14.224291">
                <ele>30.418823</ele>
                <time>2006-03-26T05:22:07Z</time>
            </trkpt>
            <trkpt lon="101.386063" lat="14.224291">
                <ele>30.418823</ele>
                <time>2006-03-26T05:22:07Z</time>
            </trkpt>
            <trkpt lon="101.385956" lat="14.223883">
                <ele>26.092896</ele>
                <time>2006-03-26T05:22:21Z</time>
            </trkpt>
            <trkpt lon="101.385956" lat="14.223883">
                <ele>26.092896</ele>
                <time>2006-03-26T05:22:21Z</time>
            </trkpt>
            <trkpt lon="101.385956" lat="14.223862">
                <ele>26.092896</ele>
                <time>2006-03-26T05:22:22Z</time>
            </trkpt>
            <trkpt lon="101.385956" lat="14.223862">
                <ele>26.092896</ele>
                <time>2006-03-26T05:22:22Z</time>
            </trkpt>
            <trkpt lon="101.386321" lat="14.223561">
                <ele>27.534912</ele>
                <time>2006-03-26T05:22:39Z</time>
            </trkpt>
            <trkpt lon="101.386321" lat="14.223561">
                <ele>27.534912</ele>
                <time>2006-03-26T05:22:39Z</time>
            </trkpt>
            <trkpt lon="101.386836" lat="14.223197">
                <ele>29.457520</ele>
                <time>2006-03-26T05:22:56Z</time>
            </trkpt>
            <trkpt lon="101.386836" lat="14.223197">
                <ele>29.457520</ele>
                <time>2006-03-26T05:22:56Z</time>
            </trkpt>
            <trkpt lon="101.387329" lat="14.222832">
                <ele>28.976929</ele>
                <time>2006-03-26T05:23:16Z</time>
            </trkpt>
            <trkpt lon="101.387329" lat="14.222832">
                <ele>28.976929</ele>
                <time>2006-03-26T05:23:16Z</time>
            </trkpt>
            <trkpt lon="101.387501" lat="14.222918">
                <ele>29.457520</ele>
                <time>2006-03-26T05:23:28Z</time>
            </trkpt>
            <trkpt lon="101.387501" lat="14.222918">
                <ele>29.457520</ele>
                <time>2006-03-26T05:23:28Z</time>
            </trkpt>
            <trkpt lon="101.387801" lat="14.223454">
                <ele>28.015503</ele>
                <time>2006-03-26T05:23:47Z</time>
            </trkpt>
            <trkpt lon="101.387801" lat="14.223454">
                <ele>28.015503</ele>
                <time>2006-03-26T05:23:47Z</time>
            </trkpt>
            <trkpt lon="101.388209" lat="14.223690">
                <ele>28.976929</ele>
                <time>2006-03-26T05:24:03Z</time>
            </trkpt>
            <trkpt lon="101.388209" lat="14.223690">
                <ele>28.976929</ele>
                <time>2006-03-26T05:24:03Z</time>
            </trkpt>
            <trkpt lon="101.388552" lat="14.224205">
                <ele>28.976929</ele>
                <time>2006-03-26T05:24:21Z</time>
            </trkpt>
            <trkpt lon="101.388552" lat="14.224205">
                <ele>28.976929</ele>
                <time>2006-03-26T05:24:21Z</time>
            </trkpt>
            <trkpt lon="101.388681" lat="14.224720">
                <ele>28.976929</ele>
                <time>2006-03-26T05:24:41Z</time>
            </trkpt>
            <trkpt lon="101.388681" lat="14.224720">
                <ele>28.976929</ele>
                <time>2006-03-26T05:24:41Z</time>
            </trkpt>
            <trkpt lon="101.388638" lat="14.224763">
                <ele>29.457520</ele>
                <time>2006-03-26T05:25:10Z</time>
            </trkpt>
            <trkpt lon="101.388638" lat="14.224763">
                <ele>29.457520</ele>
                <time>2006-03-26T05:25:10Z</time>
            </trkpt>
            <trkpt lon="101.388595" lat="14.224806">
                <ele>28.015503</ele>
                <time>2006-03-26T05:25:38Z</time>
            </trkpt>
            <trkpt lon="101.388595" lat="14.224806">
                <ele>28.015503</ele>
                <time>2006-03-26T05:25:38Z</time>
            </trkpt>
            <trkpt lon="101.388595" lat="14.224806">
                <ele>28.496216</ele>
                <time>2006-03-26T05:25:40Z</time>
            </trkpt>
            <trkpt lon="101.388595" lat="14.224806">
                <ele>28.496216</ele>
                <time>2006-03-26T05:25:40Z</time>
            </trkpt>
            <trkpt lon="101.388617" lat="14.224892">
                <ele>28.976929</ele>
                <time>2006-03-26T05:25:55Z</time>
            </trkpt>
            <trkpt lon="101.388617" lat="14.224892">
                <ele>28.976929</ele>
                <time>2006-03-26T05:25:55Z</time>
            </trkpt>
            <trkpt lon="101.388917" lat="14.225321">
                <ele>29.457520</ele>
                <time>2006-03-26T05:26:13Z</time>
            </trkpt>
            <trkpt lon="101.388917" lat="14.225321">
                <ele>29.457520</ele>
                <time>2006-03-26T05:26:13Z</time>
            </trkpt>
            <trkpt lon="101.389410" lat="14.225965">
                <ele>28.976929</ele>
                <time>2006-03-26T05:26:38Z</time>
            </trkpt>
            <trkpt lon="101.389410" lat="14.225965">
                <ele>28.976929</ele>
                <time>2006-03-26T05:26:38Z</time>
            </trkpt>
            <trkpt lon="101.389754" lat="14.225857">
                <ele>29.938110</ele>
                <time>2006-03-26T05:26:47Z</time>
            </trkpt>
            <trkpt lon="101.389754" lat="14.225857">
                <ele>29.938110</ele>
                <time>2006-03-26T05:26:47Z</time>
            </trkpt>
            <trkpt lon="101.390698" lat="14.225600">
                <ele>30.899536</ele>
                <time>2006-03-26T05:27:06Z</time>
            </trkpt>
            <trkpt lon="101.390698" lat="14.225600">
                <ele>30.899536</ele>
                <time>2006-03-26T05:27:06Z</time>
            </trkpt>
            <trkpt lon="101.391685" lat="14.225407">
                <ele>33.302856</ele>
                <time>2006-03-26T05:27:26Z</time>
            </trkpt>
            <trkpt lon="101.391685" lat="14.225407">
                <ele>33.302856</ele>
                <time>2006-03-26T05:27:26Z</time>
            </trkpt>
            <trkpt lon="101.392736" lat="14.225235">
                <ele>33.302856</ele>
                <time>2006-03-26T05:27:47Z</time>
            </trkpt>
            <trkpt lon="101.392736" lat="14.225235">
                <ele>33.302856</ele>
                <time>2006-03-26T05:27:47Z</time>
            </trkpt>
            <trkpt lon="101.394024" lat="14.225085">
                <ele>33.783447</ele>
                <time>2006-03-26T05:28:11Z</time>
            </trkpt>
            <trkpt lon="101.394024" lat="14.225085">
                <ele>33.783447</ele>
                <time>2006-03-26T05:28:11Z</time>
            </trkpt>
            <trkpt lon="101.395183" lat="14.225149">
                <ele>35.225464</ele>
                <time>2006-03-26T05:28:33Z</time>
            </trkpt>
            <trkpt lon="101.395183" lat="14.225149">
                <ele>35.225464</ele>
                <time>2006-03-26T05:28:33Z</time>
            </trkpt>
            <trkpt lon="101.395290" lat="14.225149">
                <ele>35.225464</ele>
                <time>2006-03-26T05:28:35Z</time>
            </trkpt>
            <trkpt lon="101.395290" lat="14.225149">
                <ele>35.225464</ele>
                <time>2006-03-26T05:28:35Z</time>
            </trkpt>
            <trkpt lon="101.395504" lat="14.225128">
                <ele>35.225464</ele>
                <time>2006-03-26T05:28:39Z</time>
            </trkpt>
            <trkpt lon="101.395504" lat="14.225128">
                <ele>35.225464</ele>
                <time>2006-03-26T05:28:39Z</time>
            </trkpt>
            <trkpt lon="101.396320" lat="14.224634">
                <ele>34.264160</ele>
                <time>2006-03-26T05:28:56Z</time>
            </trkpt>
            <trkpt lon="101.396320" lat="14.224634">
                <ele>34.264160</ele>
                <time>2006-03-26T05:28:56Z</time>
            </trkpt>
            <trkpt lon="101.396363" lat="14.224613">
                <ele>33.302856</ele>
                <time>2006-03-26T05:28:57Z</time>
            </trkpt>
            <trkpt lon="101.396363" lat="14.224613">
                <ele>33.302856</ele>
                <time>2006-03-26T05:28:57Z</time>
            </trkpt>
            <trkpt lon="101.396470" lat="14.224398">
                <ele>32.822266</ele>
                <time>2006-03-26T05:29:02Z</time>
            </trkpt>
            <trkpt lon="101.396470" lat="14.224398">
                <ele>32.822266</ele>
                <time>2006-03-26T05:29:02Z</time>
            </trkpt>
            <trkpt lon="101.396449" lat="14.224248">
                <ele>31.860718</ele>
                <time>2006-03-26T05:29:06Z</time>
            </trkpt>
            <trkpt lon="101.396449" lat="14.224248">
                <ele>31.860718</ele>
                <time>2006-03-26T05:29:06Z</time>
            </trkpt>
            <trkpt lon="101.395955" lat="14.223497">
                <ele>31.380127</ele>
                <time>2006-03-26T05:29:25Z</time>
            </trkpt>
            <trkpt lon="101.395955" lat="14.223497">
                <ele>31.380127</ele>
                <time>2006-03-26T05:29:25Z</time>
            </trkpt>
            <trkpt lon="101.395354" lat="14.222596">
                <ele>28.015503</ele>
                <time>2006-03-26T05:29:44Z</time>
            </trkpt>
            <trkpt lon="101.395354" lat="14.222596">
                <ele>28.015503</ele>
                <time>2006-03-26T05:29:44Z</time>
            </trkpt>
            <trkpt lon="101.395118" lat="14.222252">
                <ele>27.534912</ele>
                <time>2006-03-26T05:29:51Z</time>
            </trkpt>
            <trkpt lon="101.395118" lat="14.222252">
                <ele>27.534912</ele>
                <time>2006-03-26T05:29:51Z</time>
            </trkpt>
            <trkpt lon="101.395226" lat="14.222038">
                <ele>28.015503</ele>
                <time>2006-03-26T05:29:57Z</time>
            </trkpt>
            <trkpt lon="101.395226" lat="14.222038">
                <ele>28.015503</ele>
                <time>2006-03-26T05:29:57Z</time>
            </trkpt>
            <trkpt lon="101.395397" lat="14.221995">
                <ele>28.015503</ele>
                <time>2006-03-26T05:30:06Z</time>
            </trkpt>
            <trkpt lon="101.395397" lat="14.221995">
                <ele>28.015503</ele>
                <time>2006-03-26T05:30:06Z</time>
            </trkpt>
            <trkpt lon="101.395569" lat="14.221973">
                <ele>27.534912</ele>
                <time>2006-03-26T05:31:07Z</time>
            </trkpt>
            <trkpt lon="101.395569" lat="14.221973">
                <ele>27.534912</ele>
                <time>2006-03-26T05:31:07Z</time>
            </trkpt>
            <trkpt lon="101.396062" lat="14.221845">
                <ele>28.976929</ele>
                <time>2006-03-26T05:31:24Z</time>
            </trkpt>
            <trkpt lon="101.396062" lat="14.221845">
                <ele>28.976929</ele>
                <time>2006-03-26T05:31:24Z</time>
            </trkpt>
            <trkpt lon="101.396213" lat="14.221587">
                <ele>26.092896</ele>
                <time>2006-03-26T05:31:38Z</time>
            </trkpt>
            <trkpt lon="101.396213" lat="14.221587">
                <ele>26.092896</ele>
                <time>2006-03-26T05:31:38Z</time>
            </trkpt>
            <trkpt lon="101.396213" lat="14.221587">
                <ele>26.092896</ele>
                <time>2006-03-26T05:31:44Z</time>
            </trkpt>
            <trkpt lon="101.396213" lat="14.221587">
                <ele>26.092896</ele>
                <time>2006-03-26T05:31:44Z</time>
            </trkpt>
            <trkpt lon="101.396277" lat="14.221222">
                <ele>28.496216</ele>
                <time>2006-03-26T05:31:59Z</time>
            </trkpt>
            <trkpt lon="101.396277" lat="14.221222">
                <ele>28.496216</ele>
                <time>2006-03-26T05:31:59Z</time>
            </trkpt>
            <trkpt lon="101.396298" lat="14.221115">
                <ele>28.496216</ele>
                <time>2006-03-26T05:32:02Z</time>
            </trkpt>
            <trkpt lon="101.396298" lat="14.221115">
                <ele>28.496216</ele>
                <time>2006-03-26T05:32:02Z</time>
            </trkpt>
            <trkpt lon="101.396384" lat="14.220278">
                <ele>29.938110</ele>
                <time>2006-03-26T05:32:21Z</time>
            </trkpt>
            <trkpt lon="101.396384" lat="14.220278">
                <ele>29.938110</ele>
                <time>2006-03-26T05:32:21Z</time>
            </trkpt>
            <trkpt lon="101.396492" lat="14.220042">
                <ele>29.457520</ele>
                <time>2006-03-26T05:32:27Z</time>
            </trkpt>
            <trkpt lon="101.396492" lat="14.220042">
                <ele>29.457520</ele>
                <time>2006-03-26T05:32:27Z</time>
            </trkpt>
            <trkpt lon="101.396534" lat="14.219978">
                <ele>29.457520</ele>
                <time>2006-03-26T05:32:29Z</time>
            </trkpt>
            <trkpt lon="101.396534" lat="14.219978">
                <ele>29.457520</ele>
                <time>2006-03-26T05:32:29Z</time>
            </trkpt>
            <trkpt lon="101.397007" lat="14.219377">
                <ele>32.341553</ele>
                <time>2006-03-26T05:32:47Z</time>
            </trkpt>
            <trkpt lon="101.397007" lat="14.219377">
                <ele>32.341553</ele>
                <time>2006-03-26T05:32:47Z</time>
            </trkpt>
            <trkpt lon="101.397264" lat="14.219162">
                <ele>33.302856</ele>
                <time>2006-03-26T05:32:54Z</time>
            </trkpt>
            <trkpt lon="101.397264" lat="14.219162">
                <ele>33.302856</ele>
                <time>2006-03-26T05:32:54Z</time>
            </trkpt>
            <trkpt lon="101.397371" lat="14.219120">
                <ele>33.302856</ele>
                <time>2006-03-26T05:32:56Z</time>
            </trkpt>
            <trkpt lon="101.397371" lat="14.219120">
                <ele>33.302856</ele>
                <time>2006-03-26T05:32:56Z</time>
            </trkpt>
            <trkpt lon="101.397908" lat="14.219527">
                <ele>33.302856</ele>
                <time>2006-03-26T05:33:10Z</time>
            </trkpt>
            <trkpt lon="101.397908" lat="14.219527">
                <ele>33.302856</ele>
                <time>2006-03-26T05:33:10Z</time>
            </trkpt>
            <trkpt lon="101.398273" lat="14.219978">
                <ele>36.186768</ele>
                <time>2006-03-26T05:33:25Z</time>
            </trkpt>
            <trkpt lon="101.398273" lat="14.219978">
                <ele>36.186768</ele>
                <time>2006-03-26T05:33:25Z</time>
            </trkpt>
            <trkpt lon="101.398358" lat="14.220064">
                <ele>36.186768</ele>
                <time>2006-03-26T05:33:28Z</time>
            </trkpt>
            <trkpt lon="101.398358" lat="14.220064">
                <ele>36.186768</ele>
                <time>2006-03-26T05:33:28Z</time>
            </trkpt>
            <trkpt lon="101.399066" lat="14.220192">
                <ele>36.186768</ele>
                <time>2006-03-26T05:33:43Z</time>
            </trkpt>
            <trkpt lon="101.399066" lat="14.220192">
                <ele>36.186768</ele>
                <time>2006-03-26T05:33:43Z</time>
            </trkpt>
            <trkpt lon="101.399453" lat="14.220214">
                <ele>36.667480</ele>
                <time>2006-03-26T05:33:50Z</time>
            </trkpt>
            <trkpt lon="101.399453" lat="14.220214">
                <ele>36.667480</ele>
                <time>2006-03-26T05:33:50Z</time>
            </trkpt>
            <trkpt lon="101.400654" lat="14.220643">
                <ele>37.148071</ele>
                <time>2006-03-26T05:34:11Z</time>
            </trkpt>
            <trkpt lon="101.400654" lat="14.220643">
                <ele>37.148071</ele>
                <time>2006-03-26T05:34:11Z</time>
            </trkpt>
            <trkpt lon="101.401770" lat="14.220943">
                <ele>38.590088</ele>
                <time>2006-03-26T05:34:30Z</time>
            </trkpt>
            <trkpt lon="101.401770" lat="14.220943">
                <ele>38.590088</ele>
                <time>2006-03-26T05:34:30Z</time>
            </trkpt>
            <trkpt lon="101.401834" lat="14.220943">
                <ele>38.590088</ele>
                <time>2006-03-26T05:34:31Z</time>
            </trkpt>
            <trkpt lon="101.401834" lat="14.220943">
                <ele>38.590088</ele>
                <time>2006-03-26T05:34:31Z</time>
            </trkpt>
            <trkpt lon="101.402071" lat="14.220922">
                <ele>39.070679</ele>
                <time>2006-03-26T05:34:35Z</time>
            </trkpt>
            <trkpt lon="101.402071" lat="14.220922">
                <ele>39.070679</ele>
                <time>2006-03-26T05:34:35Z</time>
            </trkpt>
            <trkpt lon="101.402178" lat="14.220879">
                <ele>39.070679</ele>
                <time>2006-03-26T05:34:37Z</time>
            </trkpt>
            <trkpt lon="101.402178" lat="14.220879">
                <ele>39.070679</ele>
                <time>2006-03-26T05:34:37Z</time>
            </trkpt>
            <trkpt lon="101.402500" lat="14.220922">
                <ele>39.070679</ele>
                <time>2006-03-26T05:34:43Z</time>
            </trkpt>
            <trkpt lon="101.402500" lat="14.220922">
                <ele>39.070679</ele>
                <time>2006-03-26T05:34:43Z</time>
            </trkpt>
            <trkpt lon="101.403337" lat="14.221330">
                <ele>40.032104</ele>
                <time>2006-03-26T05:35:02Z</time>
            </trkpt>
            <trkpt lon="101.403337" lat="14.221330">
                <ele>40.032104</ele>
                <time>2006-03-26T05:35:02Z</time>
            </trkpt>
            <trkpt lon="101.404066" lat="14.221694">
                <ele>41.473999</ele>
                <time>2006-03-26T05:35:22Z</time>
            </trkpt>
            <trkpt lon="101.404066" lat="14.221694">
                <ele>41.473999</ele>
                <time>2006-03-26T05:35:22Z</time>
            </trkpt>
            <trkpt lon="101.404731" lat="14.222016">
                <ele>41.954712</ele>
                <time>2006-03-26T05:35:40Z</time>
            </trkpt>
            <trkpt lon="101.404731" lat="14.222016">
                <ele>41.954712</ele>
                <time>2006-03-26T05:35:40Z</time>
            </trkpt>
            <trkpt lon="101.405461" lat="14.222124">
                <ele>44.358032</ele>
                <time>2006-03-26T05:36:01Z</time>
            </trkpt>
            <trkpt lon="101.405461" lat="14.222124">
                <ele>44.358032</ele>
                <time>2006-03-26T05:36:01Z</time>
            </trkpt>
            <trkpt lon="101.405611" lat="14.222102">
                <ele>44.358032</ele>
                <time>2006-03-26T05:36:05Z</time>
            </trkpt>
            <trkpt lon="101.405611" lat="14.222102">
                <ele>44.358032</ele>
                <time>2006-03-26T05:36:05Z</time>
            </trkpt>
            <trkpt lon="101.405675" lat="14.221802">
                <ele>42.435425</ele>
                <time>2006-03-26T05:36:12Z</time>
            </trkpt>
            <trkpt lon="101.405675" lat="14.221802">
                <ele>42.435425</ele>
                <time>2006-03-26T05:36:12Z</time>
            </trkpt>
            <trkpt lon="101.405697" lat="14.220750">
                <ele>39.070679</ele>
                <time>2006-03-26T05:36:32Z</time>
            </trkpt>
            <trkpt lon="101.405697" lat="14.220750">
                <ele>39.070679</ele>
                <time>2006-03-26T05:36:32Z</time>
            </trkpt>
            <trkpt lon="101.405718" lat="14.219398">
                <ele>37.628662</ele>
                <time>2006-03-26T05:36:55Z</time>
            </trkpt>
            <trkpt lon="101.405718" lat="14.219398">
                <ele>37.628662</ele>
                <time>2006-03-26T05:36:55Z</time>
            </trkpt>
            <trkpt lon="101.405654" lat="14.218519">
                <ele>37.628662</ele>
                <time>2006-03-26T05:37:11Z</time>
            </trkpt>
            <trkpt lon="101.405654" lat="14.218519">
                <ele>37.628662</ele>
                <time>2006-03-26T05:37:11Z</time>
            </trkpt>
            <trkpt lon="101.405804" lat="14.218347">
                <ele>38.109375</ele>
                <time>2006-03-26T05:37:17Z</time>
            </trkpt>
            <trkpt lon="101.405804" lat="14.218347">
                <ele>38.109375</ele>
                <time>2006-03-26T05:37:17Z</time>
            </trkpt>
            <trkpt lon="101.405911" lat="14.218090">
                <ele>38.109375</ele>
                <time>2006-03-26T05:37:25Z</time>
            </trkpt>
            <trkpt lon="101.405911" lat="14.218090">
                <ele>38.109375</ele>
                <time>2006-03-26T05:37:25Z</time>
            </trkpt>
            <trkpt lon="101.405890" lat="14.217918">
                <ele>38.109375</ele>
                <time>2006-03-26T05:37:29Z</time>
            </trkpt>
            <trkpt lon="101.405890" lat="14.217918">
                <ele>38.109375</ele>
                <time>2006-03-26T05:37:29Z</time>
            </trkpt>
            <trkpt lon="101.405954" lat="14.217703">
                <ele>37.628662</ele>
                <time>2006-03-26T05:37:34Z</time>
            </trkpt>
            <trkpt lon="101.405954" lat="14.217703">
                <ele>37.628662</ele>
                <time>2006-03-26T05:37:34Z</time>
            </trkpt>
            <trkpt lon="101.406147" lat="14.217553">
                <ele>37.148071</ele>
                <time>2006-03-26T05:37:40Z</time>
            </trkpt>
            <trkpt lon="101.406147" lat="14.217553">
                <ele>37.148071</ele>
                <time>2006-03-26T05:37:40Z</time>
            </trkpt>
            <trkpt lon="101.406662" lat="14.217381">
                <ele>37.148071</ele>
                <time>2006-03-26T05:37:54Z</time>
            </trkpt>
            <trkpt lon="101.406662" lat="14.217381">
                <ele>37.148071</ele>
                <time>2006-03-26T05:37:54Z</time>
            </trkpt>
            <trkpt lon="101.407328" lat="14.217081">
                <ele>38.590088</ele>
                <time>2006-03-26T05:38:12Z</time>
            </trkpt>
            <trkpt lon="101.407328" lat="14.217081">
                <ele>38.590088</ele>
                <time>2006-03-26T05:38:12Z</time>
            </trkpt>
            <trkpt lon="101.407349" lat="14.217038">
                <ele>39.070679</ele>
                <time>2006-03-26T05:38:13Z</time>
            </trkpt>
            <trkpt lon="101.407349" lat="14.217038">
                <ele>39.070679</ele>
                <time>2006-03-26T05:38:13Z</time>
            </trkpt>
            <trkpt lon="101.407242" lat="14.216909">
                <ele>39.551270</ele>
                <time>2006-03-26T05:38:18Z</time>
            </trkpt>
            <trkpt lon="101.407242" lat="14.216909">
                <ele>39.551270</ele>
                <time>2006-03-26T05:38:18Z</time>
            </trkpt>
            <trkpt lon="101.407092" lat="14.216824">
                <ele>40.032104</ele>
                <time>2006-03-26T05:38:22Z</time>
            </trkpt>
            <trkpt lon="101.407092" lat="14.216824">
                <ele>40.032104</ele>
                <time>2006-03-26T05:38:22Z</time>
            </trkpt>
            <trkpt lon="101.406405" lat="14.216759">
                <ele>41.473999</ele>
                <time>2006-03-26T05:38:39Z</time>
            </trkpt>
            <trkpt lon="101.406405" lat="14.216759">
                <ele>41.473999</ele>
                <time>2006-03-26T05:38:39Z</time>
            </trkpt>
            <trkpt lon="101.406362" lat="14.216738">
                <ele>40.512817</ele>
                <time>2006-03-26T05:38:47Z</time>
            </trkpt>
            <trkpt lon="101.406362" lat="14.216738">
                <ele>40.512817</ele>
                <time>2006-03-26T05:38:47Z</time>
            </trkpt>
        </trkseg>
    </trk>
</gpx>